AFR27 KLAX-LFPG
Flight info
| Callsign | AFR27 |
|---|---|
| Flight time | 10h 0m |
| Altitude | 37000 |
| Route | OSHNN1 BEALE BAWER LARVE EKR BFF KD78A RWF GEP KP09K CMX HENDY/N0500F390 YWK HOIST/M084F400 57N050W 58N040W 58N030W 57N020W PIKIL SOVED/N0487F410 REVNU LIPGO NUCHU L18 MID/N0503F290 Y803 SFD UM605 BIBAX |
| Aircraft | A359/H-SDE2E3GHIJ3J4J5LM1ORWXY/LB1D1 |
Departure
| Time | 2026-04-20 06:40 |
|---|---|
| Airport | Los Angeles International Airport (KLAX) |
Arrival
| Time | 2026-04-20 16:40 |
|---|---|
| Airport | Charles de Gaulle International Airport (LFPG) |
| Time | Latitude | Longitude | Altitude | Speed | Heading |
|---|---|---|---|---|---|
| 2026-04-20 06:00 | 33.94413 | -118.41600 | 99 ft | 0 kts | 83° |
| 2026-04-20 06:00 | 33.94414 | -118.41583 | 99 ft | 0 kts | 83° |
| 2026-04-20 06:28 | 33.94413 | -118.41593 | 99 ft | 4 kts | 83° |
| 2026-04-20 06:28 | 33.94410 | -118.41624 | 99 ft | 4 kts | 83° |
| 2026-04-20 06:28 | 33.94408 | -118.41651 | 99 ft | 4 kts | 80° |
| 2026-04-20 06:28 | 33.94398 | -118.41676 | 99 ft | 4 kts | 26° |
| 2026-04-20 06:29 | 33.94375 | -118.41680 | 99 ft | 4 kts | 352° |
| 2026-04-20 06:29 | 33.94349 | -118.41675 | 99 ft | 4 kts | 352° |
| 2026-04-20 06:29 | 33.94338 | -118.41673 | 99 ft | 5 kts | 352° |
| 2026-04-20 06:31 | 33.94342 | -118.41674 | 99 ft | 3 kts | 353° |
| 2026-04-20 06:32 | 33.94396 | -118.41681 | 99 ft | 11 kts | 352° |
| 2026-04-20 06:32 | 33.94472 | -118.41694 | 99 ft | 11 kts | 352° |
| 2026-04-20 06:32 | 33.94551 | -118.41706 | 99 ft | 12 kts | 352° |
| 2026-04-20 06:32 | 33.94612 | -118.41712 | 99 ft | 7 kts | 7° |
| 2026-04-20 06:33 | 33.94645 | -118.41674 | 99 ft | 7 kts | 63° |
| 2026-04-20 06:33 | 33.94659 | -118.41607 | 99 ft | 9 kts | 76° |
| 2026-04-20 06:33 | 33.94700 | -118.41572 | 99 ft | 7 kts | 13° |
| 2026-04-20 06:33 | 33.94742 | -118.41540 | 100 ft | 9 kts | 51° |
| 2026-04-20 06:34 | 33.94761 | -118.41457 | 100 ft | 11 kts | 79° |
| 2026-04-20 06:34 | 33.94782 | -118.41370 | 100 ft | 11 kts | 77° |
| 2026-04-20 06:34 | 33.94803 | -118.41188 | 100 ft | 11 kts | 83° |
| 2026-04-20 06:35 | 33.94812 | -118.41095 | 101 ft | 11 kts | 83° |
| 2026-04-20 06:35 | 33.94821 | -118.41001 | 101 ft | 12 kts | 83° |
| 2026-04-20 06:35 | 33.94831 | -118.40902 | 101 ft | 12 kts | 83° |
| 2026-04-20 06:35 | 33.94842 | -118.40798 | 100 ft | 13 kts | 83° |
| 2026-04-20 06:36 | 33.94853 | -118.40688 | 100 ft | 13 kts | 83° |
| 2026-04-20 06:36 | 33.94865 | -118.40575 | 100 ft | 14 kts | 83° |
| 2026-04-20 06:36 | 33.94877 | -118.40457 | 100 ft | 14 kts | 83° |
| 2026-04-20 06:36 | 33.94890 | -118.40335 | 100 ft | 15 kts | 83° |
| 2026-04-20 06:37 | 33.94903 | -118.40210 | 100 ft | 15 kts | 83° |
| 2026-04-20 06:37 | 33.94916 | -118.40082 | 99 ft | 16 kts | 83° |
| 2026-04-20 06:37 | 33.94931 | -118.39964 | 99 ft | 8 kts | 71° |
| 2026-04-20 06:37 | 33.94973 | -118.39921 | 99 ft | 8 kts | 17° |
| 2026-04-20 06:38 | 33.95023 | -118.39932 | 99 ft | 7 kts | 321° |
| 2026-04-20 06:38 | 33.95036 | -118.39982 | 99 ft | 6 kts | 275° |
| 2026-04-20 06:38 | 33.95034 | -118.40014 | 100 ft | 0 kts | 263° |
| 2026-04-20 06:38 | 33.95033 | -118.40024 | 100 ft | 9 kts | 263° |
| 2026-04-20 06:39 | 33.95001 | -118.40354 | 104 ft | 70 kts | 263° |
| 2026-04-20 06:39 | 33.94918 | -118.41159 | 104 ft | 122 kts | 263° |
| 2026-04-20 06:39 | 33.94793 | -118.42362 | 104 ft | 166 kts | 262° |
| 2026-04-20 06:39 | 33.94646 | -118.43820 | 483 ft | 175 kts | 262° |
| 2026-04-20 06:40 | 33.94487 | -118.45233 | 1164 ft | 165 kts | 262° |
| 2026-04-20 06:40 | 33.94342 | -118.46625 | 1529 ft | 173 kts | 262° |
| 2026-04-20 06:40 | 33.93875 | -118.47983 | 1665 ft | 187 kts | 228° |
| 2026-04-20 06:40 | 33.92714 | -118.48753 | 1817 ft | 202 kts | 188° |
| 2026-04-20 06:41 | 33.91296 | -118.48458 | 1983 ft | 219 kts | 150° |
| 2026-04-20 06:41 | 33.90261 | -118.47078 | 2221 ft | 232 kts | 112° |
| 2026-04-20 06:41 | 33.90125 | -118.45108 | 2434 ft | 248 kts | 75° |
| 2026-04-20 06:41 | 33.91025 | -118.43309 | 2698 ft | 261 kts | 41° |
| 2026-04-20 06:42 | 33.92651 | -118.42329 | 3064 ft | 268 kts | 12° |
| 2026-04-20 06:42 | 33.94486 | -118.41844 | 3524 ft | 273 kts | 13° |
| 2026-04-20 06:42 | 33.96202 | -118.40902 | 4072 ft | 272 kts | 41° |
| 2026-04-20 06:42 | 33.97284 | -118.39090 | 4686 ft | 269 kts | 70° |
| 2026-04-20 06:43 | 33.97741 | -118.36905 | 5183 ft | 269 kts | 72° |
| 2026-04-20 06:43 | 33.98512 | -118.34831 | 5609 ft | 275 kts | 62° |
| 2026-04-20 06:43 | 33.99467 | -118.32800 | 6055 ft | 279 kts | 59° |
| 2026-04-20 06:43 | 34.00495 | -118.30801 | 6530 ft | 282 kts | 57° |
| 2026-04-20 06:44 | 34.01569 | -118.28809 | 7008 ft | 284 kts | 57° |
| 2026-04-20 06:44 | 34.02654 | -118.26845 | 7475 ft | 287 kts | 56° |
| 2026-04-20 06:44 | 34.03772 | -118.24843 | 7945 ft | 289 kts | 56° |
| 2026-04-20 06:44 | 34.04918 | -118.22805 | 8414 ft | 291 kts | 56° |
| 2026-04-20 06:45 | 34.06046 | -118.20804 | 8866 ft | 294 kts | 56° |
| 2026-04-20 06:45 | 34.07215 | -118.18734 | 9326 ft | 296 kts | 56° |
| 2026-04-20 06:45 | 34.08363 | -118.16701 | 9768 ft | 298 kts | 56° |
| 2026-04-20 06:45 | 34.09538 | -118.14622 | 10156 ft | 303 kts | 56° |
| 2026-04-20 06:46 | 34.10749 | -118.12479 | 10362 ft | 314 kts | 56° |
| 2026-04-20 06:46 | 34.11997 | -118.10270 | 10555 ft | 324 kts | 56° |
| 2026-04-20 06:46 | 34.13294 | -118.07987 | 10746 ft | 334 kts | 56° |
| 2026-04-20 06:46 | 34.14620 | -118.05633 | 10931 ft | 344 kts | 56° |
| 2026-04-20 06:47 | 34.15982 | -118.03210 | 11109 ft | 354 kts | 56° |
| 2026-04-20 06:47 | 34.17380 | -118.00723 | 11282 ft | 362 kts | 56° |
| 2026-04-20 06:47 | 34.18814 | -117.98173 | 11451 ft | 371 kts | 56° |
| 2026-04-20 06:47 | 34.20284 | -117.95559 | 11613 ft | 379 kts | 56° |
| 2026-04-20 06:48 | 34.21775 | -117.92903 | 11764 ft | 386 kts | 56° |
| 2026-04-20 06:48 | 34.23297 | -117.90193 | 11905 ft | 393 kts | 56° |
| 2026-04-20 06:48 | 34.24842 | -117.87440 | 12087 ft | 398 kts | 56° |
| 2026-04-20 06:48 | 34.26400 | -117.84661 | 12338 ft | 401 kts | 56° |
| 2026-04-20 06:49 | 34.27948 | -117.81898 | 12605 ft | 403 kts | 56° |
| 2026-04-20 06:49 | 34.29520 | -117.79089 | 12867 ft | 404 kts | 56° |
| 2026-04-20 06:49 | 34.31101 | -117.76262 | 13116 ft | 406 kts | 56° |
| 2026-04-20 06:49 | 34.32689 | -117.73421 | 13365 ft | 408 kts | 56° |
| 2026-04-20 06:50 | 34.34280 | -117.70572 | 13609 ft | 410 kts | 56° |
| 2026-04-20 06:50 | 34.35891 | -117.67715 | 13844 ft | 411 kts | 55° |
| 2026-04-20 06:50 | 34.37569 | -117.64902 | 14068 ft | 413 kts | 54° |
| 2026-04-20 06:50 | 34.39269 | -117.62089 | 14289 ft | 415 kts | 54° |
| 2026-04-20 06:51 | 34.40961 | -117.59279 | 14506 ft | 416 kts | 54° |
| 2026-04-20 06:51 | 34.42668 | -117.56432 | 14727 ft | 418 kts | 54° |
| 2026-04-20 06:51 | 34.44373 | -117.53579 | 14941 ft | 419 kts | 54° |
| 2026-04-20 06:51 | 34.46085 | -117.50710 | 15151 ft | 421 kts | 54° |
| 2026-04-20 06:52 | 34.47803 | -117.47826 | 15358 ft | 422 kts | 54° |
| 2026-04-20 06:52 | 34.49504 | -117.44967 | 15559 ft | 424 kts | 54° |
| 2026-04-20 06:52 | 34.51231 | -117.42061 | 15759 ft | 425 kts | 54° |
| 2026-04-20 06:52 | 34.52964 | -117.39143 | 15956 ft | 427 kts | 54° |
| 2026-04-20 06:53 | 34.54703 | -117.36212 | 16151 ft | 428 kts | 54° |
| 2026-04-20 06:53 | 34.56444 | -117.33275 | 16340 ft | 429 kts | 54° |
| 2026-04-20 06:53 | 34.58194 | -117.30320 | 16526 ft | 431 kts | 54° |
| 2026-04-20 06:53 | 34.59950 | -117.27353 | 16709 ft | 432 kts | 54° |
| 2026-04-20 06:54 | 34.61703 | -117.24389 | 16886 ft | 433 kts | 54° |
| 2026-04-20 06:54 | 34.63466 | -117.21405 | 17059 ft | 435 kts | 54° |
| 2026-04-20 06:54 | 34.65210 | -117.18451 | 17227 ft | 436 kts | 54° |
| 2026-04-20 06:54 | 34.66977 | -117.15453 | 17393 ft | 437 kts | 54° |
| 2026-04-20 06:55 | 34.68751 | -117.12444 | 17556 ft | 438 kts | 54° |
| 2026-04-20 06:55 | 34.70532 | -117.09420 | 17716 ft | 440 kts | 54° |
| 2026-04-20 06:55 | 34.72317 | -117.06386 | 17869 ft | 441 kts | 54° |
| 2026-04-20 06:55 | 34.74104 | -117.03346 | 18020 ft | 442 kts | 54° |
| 2026-04-20 06:56 | 34.75892 | -117.00301 | 18167 ft | 443 kts | 54° |
| 2026-04-20 06:56 | 34.77687 | -116.97242 | 18310 ft | 444 kts | 54° |
| 2026-04-20 06:56 | 34.79484 | -116.94178 | 18451 ft | 445 kts | 54° |
| 2026-04-20 06:56 | 34.81266 | -116.91136 | 18587 ft | 446 kts | 54° |
| 2026-04-20 06:57 | 34.83073 | -116.88048 | 18719 ft | 447 kts | 54° |
| 2026-04-20 06:57 | 34.84881 | -116.84957 | 18849 ft | 448 kts | 54° |
| 2026-04-20 06:57 | 34.86690 | -116.81860 | 18976 ft | 449 kts | 54° |
| 2026-04-20 06:57 | 34.88505 | -116.78751 | 19100 ft | 450 kts | 54° |
| 2026-04-20 06:58 | 34.90323 | -116.75636 | 19222 ft | 451 kts | 54° |
| 2026-04-20 06:58 | 34.92214 | -116.72592 | 19333 ft | 452 kts | 50° |
| 2026-04-20 06:58 | 34.94308 | -116.69716 | 19451 ft | 453 kts | 47° |
| 2026-04-20 06:58 | 34.96457 | -116.66886 | 19564 ft | 454 kts | 47° |
| 2026-04-20 06:59 | 34.98608 | -116.64064 | 19673 ft | 455 kts | 47° |
| 2026-04-20 06:59 | 35.00766 | -116.61229 | 19782 ft | 456 kts | 47° |
| 2026-04-20 06:59 | 35.02929 | -116.58382 | 19886 ft | 457 kts | 47° |
| 2026-04-20 06:59 | 35.05063 | -116.55569 | 19988 ft | 457 kts | 47° |
| 2026-04-20 07:00 | 35.07224 | -116.52716 | 20088 ft | 458 kts | 47° |
| 2026-04-20 07:00 | 35.09389 | -116.49856 | 20186 ft | 459 kts | 47° |
| 2026-04-20 07:00 | 35.11557 | -116.46990 | 20280 ft | 460 kts | 47° |
| 2026-04-20 07:00 | 35.13729 | -116.44115 | 20374 ft | 461 kts | 47° |
| 2026-04-20 07:01 | 35.15909 | -116.41227 | 20465 ft | 461 kts | 47° |
| 2026-04-20 07:01 | 35.18086 | -116.38340 | 20555 ft | 462 kts | 47° |
| 2026-04-20 07:01 | 35.20269 | -116.35443 | 20643 ft | 463 kts | 47° |
| 2026-04-20 07:01 | 35.22451 | -116.32545 | 20733 ft | 463 kts | 47° |
| 2026-04-20 07:02 | 35.24641 | -116.29635 | 20817 ft | 464 kts | 47° |
| 2026-04-20 07:02 | 35.26826 | -116.26727 | 20900 ft | 465 kts | 47° |
| 2026-04-20 07:02 | 35.28991 | -116.23844 | 20981 ft | 465 kts | 47° |
| 2026-04-20 07:02 | 35.31182 | -116.20924 | 21062 ft | 466 kts | 47° |
| 2026-04-20 07:03 | 35.33378 | -116.17995 | 21141 ft | 467 kts | 47° |
| 2026-04-20 07:03 | 35.35578 | -116.15058 | 21217 ft | 467 kts | 47° |
| 2026-04-20 07:03 | 35.37778 | -116.12119 | 21291 ft | 468 kts | 47° |
| 2026-04-20 07:03 | 35.39984 | -116.09167 | 21366 ft | 469 kts | 47° |
| 2026-04-20 07:04 | 35.42188 | -116.06218 | 21440 ft | 469 kts | 47° |
| 2026-04-20 07:04 | 35.44364 | -116.03302 | 21510 ft | 470 kts | 47° |
| 2026-04-20 07:04 | 35.46573 | -116.00340 | 21580 ft | 470 kts | 47° |
| 2026-04-20 07:04 | 35.48785 | -115.97373 | 21649 ft | 471 kts | 47° |
| 2026-04-20 07:05 | 35.50997 | -115.94402 | 21716 ft | 471 kts | 47° |
| 2026-04-20 07:05 | 35.52468 | -115.92424 | 21760 ft | 472 kts | 47° |
| 2026-04-20 07:05 | 35.54681 | -115.89447 | 21823 ft | 472 kts | 47° |
| 2026-04-20 07:05 | 35.56895 | -115.86467 | 21886 ft | 473 kts | 47° |
| 2026-04-20 07:06 | 35.59111 | -115.83481 | 21946 ft | 473 kts | 47° |
| 2026-04-20 07:06 | 35.61334 | -115.80483 | 22006 ft | 474 kts | 47° |
| 2026-04-20 07:06 | 35.63559 | -115.77480 | 22065 ft | 474 kts | 47° |
| 2026-04-20 07:06 | 35.65767 | -115.74466 | 22123 ft | 475 kts | 48° |
| 2026-04-20 07:07 | 35.67969 | -115.71434 | 22180 ft | 475 kts | 48° |
| 2026-04-20 07:07 | 35.70171 | -115.68399 | 22234 ft | 476 kts | 48° |
| 2026-04-20 07:07 | 35.72373 | -115.65364 | 22289 ft | 476 kts | 48° |
| 2026-04-20 07:07 | 35.74554 | -115.62358 | 22341 ft | 476 kts | 48° |
| 2026-04-20 07:08 | 35.76772 | -115.59300 | 22393 ft | 477 kts | 48° |
| 2026-04-20 07:08 | 35.78989 | -115.56241 | 22445 ft | 477 kts | 48° |
| 2026-04-20 07:08 | 35.81200 | -115.53187 | 22495 ft | 478 kts | 48° |
| 2026-04-20 07:08 | 35.83414 | -115.50126 | 22547 ft | 478 kts | 48° |
| 2026-04-20 07:09 | 35.85629 | -115.47062 | 22595 ft | 479 kts | 48° |
| 2026-04-20 07:09 | 35.87823 | -115.44024 | 22640 ft | 479 kts | 48° |
| 2026-04-20 07:09 | 35.90041 | -115.40950 | 22685 ft | 479 kts | 48° |
| 2026-04-20 07:09 | 35.92259 | -115.37873 | 22730 ft | 480 kts | 48° |
| 2026-04-20 07:10 | 35.94475 | -115.34797 | 22774 ft | 480 kts | 48° |
| 2026-04-20 07:10 | 35.96693 | -115.31713 | 22814 ft | 480 kts | 48° |
| 2026-04-20 07:10 | 35.98910 | -115.28629 | 22855 ft | 481 kts | 48° |
| 2026-04-20 07:10 | 36.01132 | -115.25537 | 22895 ft | 481 kts | 48° |
| 2026-04-20 07:11 | 36.03356 | -115.22437 | 22935 ft | 481 kts | 48° |
| 2026-04-20 07:11 | 36.05574 | -115.19343 | 22973 ft | 482 kts | 48° |
| 2026-04-20 07:11 | 36.07759 | -115.16195 | 23005 ft | 482 kts | 52° |
| 2026-04-20 07:11 | 36.09763 | -115.12934 | 23043 ft | 482 kts | 54° |
| 2026-04-20 07:12 | 36.11711 | -115.09556 | 23079 ft | 483 kts | 55° |
| 2026-04-20 07:12 | 36.13621 | -115.06138 | 23114 ft | 483 kts | 56° |
| 2026-04-20 07:12 | 36.15516 | -115.02704 | 23149 ft | 483 kts | 56° |
| 2026-04-20 07:12 | 36.17410 | -114.99270 | 23185 ft | 483 kts | 56° |
| 2026-04-20 07:13 | 36.19309 | -114.95840 | 23218 ft | 484 kts | 56° |
| 2026-04-20 07:13 | 36.21219 | -114.92403 | 23251 ft | 484 kts | 55° |
| 2026-04-20 07:13 | 36.23136 | -114.88963 | 23283 ft | 484 kts | 55° |
| 2026-04-20 07:13 | 36.25052 | -114.85531 | 23316 ft | 484 kts | 55° |
| 2026-04-20 07:14 | 36.26973 | -114.82089 | 23346 ft | 485 kts | 55° |
| 2026-04-20 07:14 | 36.28891 | -114.78651 | 23378 ft | 485 kts | 55° |
| 2026-04-20 07:14 | 36.30785 | -114.75253 | 23410 ft | 485 kts | 55° |
| 2026-04-20 07:14 | 36.32706 | -114.71800 | 23439 ft | 485 kts | 55° |
| 2026-04-20 07:15 | 36.34629 | -114.68343 | 23467 ft | 486 kts | 55° |
| 2026-04-20 07:15 | 36.36546 | -114.64889 | 23497 ft | 486 kts | 55° |
| 2026-04-20 07:15 | 36.38466 | -114.61428 | 23526 ft | 486 kts | 56° |
| 2026-04-20 07:15 | 36.40388 | -114.57959 | 23554 ft | 486 kts | 56° |
| 2026-04-20 07:16 | 36.42279 | -114.54542 | 23579 ft | 486 kts | 56° |
| 2026-04-20 07:16 | 36.44194 | -114.51080 | 23607 ft | 487 kts | 56° |
| 2026-04-20 07:16 | 36.46110 | -114.47611 | 23629 ft | 487 kts | 56° |
| 2026-04-20 07:16 | 36.48026 | -114.44138 | 23652 ft | 487 kts | 56° |
| 2026-04-20 07:17 | 36.49946 | -114.40656 | 23674 ft | 487 kts | 56° |
| 2026-04-20 07:17 | 36.51861 | -114.37178 | 23698 ft | 487 kts | 56° |
| 2026-04-20 07:17 | 36.53776 | -114.33699 | 23721 ft | 488 kts | 56° |
| 2026-04-20 07:17 | 36.55693 | -114.30210 | 23742 ft | 488 kts | 56° |
| 2026-04-20 07:18 | 36.57606 | -114.26725 | 23766 ft | 488 kts | 56° |
| 2026-04-20 07:18 | 36.59520 | -114.23236 | 23786 ft | 488 kts | 56° |
| 2026-04-20 07:18 | 36.61436 | -114.19739 | 23808 ft | 488 kts | 56° |
| 2026-04-20 07:18 | 36.63327 | -114.16284 | 23828 ft | 489 kts | 56° |
| 2026-04-20 07:19 | 36.65243 | -114.12779 | 23848 ft | 489 kts | 56° |
| 2026-04-20 07:19 | 36.67159 | -114.09272 | 23866 ft | 489 kts | 56° |
| 2026-04-20 07:19 | 36.69072 | -114.05766 | 23885 ft | 489 kts | 56° |
| 2026-04-20 07:19 | 36.70989 | -114.02248 | 23904 ft | 489 kts | 56° |
| 2026-04-20 07:20 | 36.72899 | -113.98741 | 23920 ft | 489 kts | 56° |
| 2026-04-20 07:20 | 36.74808 | -113.95231 | 23939 ft | 489 kts | 56° |
| 2026-04-20 07:20 | 36.76724 | -113.91706 | 23956 ft | 490 kts | 56° |
| 2026-04-20 07:20 | 36.78636 | -113.88185 | 23974 ft | 490 kts | 56° |
| 2026-04-20 07:21 | 36.80545 | -113.84664 | 23991 ft | 490 kts | 56° |
| 2026-04-20 07:21 | 36.82431 | -113.81181 | 24006 ft | 490 kts | 56° |
| 2026-04-20 07:21 | 36.84335 | -113.77662 | 24022 ft | 490 kts | 56° |
| 2026-04-20 07:21 | 36.86242 | -113.74135 | 24036 ft | 490 kts | 56° |
| 2026-04-20 07:22 | 36.88151 | -113.70600 | 24050 ft | 490 kts | 56° |
| 2026-04-20 07:22 | 36.90060 | -113.67062 | 24062 ft | 490 kts | 56° |
| 2026-04-20 07:22 | 36.91963 | -113.63530 | 24075 ft | 490 kts | 56° |
| 2026-04-20 07:22 | 36.93869 | -113.59990 | 24088 ft | 491 kts | 56° |
| 2026-04-20 07:23 | 36.95777 | -113.56442 | 24100 ft | 491 kts | 56° |
| 2026-04-20 07:23 | 36.97681 | -113.52897 | 24112 ft | 491 kts | 56° |
| 2026-04-20 07:23 | 36.99582 | -113.49354 | 24123 ft | 491 kts | 56° |
| 2026-04-20 07:23 | 37.01489 | -113.45796 | 24140 ft | 491 kts | 56° |
| 2026-04-20 07:24 | 37.03391 | -113.42244 | 24150 ft | 491 kts | 56° |
| 2026-04-20 07:24 | 37.05273 | -113.38727 | 24161 ft | 491 kts | 56° |
| 2026-04-20 07:24 | 37.07169 | -113.35177 | 24172 ft | 491 kts | 56° |
| 2026-04-20 07:24 | 37.09078 | -113.31602 | 24181 ft | 491 kts | 56° |
| 2026-04-20 07:25 | 37.10976 | -113.28043 | 24193 ft | 491 kts | 56° |
| 2026-04-20 07:25 | 37.12878 | -113.24471 | 24203 ft | 491 kts | 56° |
| 2026-04-20 07:25 | 37.14750 | -113.20954 | 24215 ft | 491 kts | 56° |
| 2026-04-20 07:25 | 37.16647 | -113.17383 | 24225 ft | 492 kts | 56° |
| 2026-04-20 07:26 | 37.18543 | -113.13812 | 24235 ft | 492 kts | 56° |
| 2026-04-20 07:26 | 37.20438 | -113.10240 | 24248 ft | 492 kts | 56° |
| 2026-04-20 07:26 | 37.22325 | -113.06679 | 24263 ft | 492 kts | 56° |
| 2026-04-20 07:26 | 37.24221 | -113.03096 | 24266 ft | 492 kts | 56° |
| 2026-04-20 07:27 | 37.26110 | -112.99523 | 24278 ft | 492 kts | 56° |
| 2026-04-20 07:27 | 37.28002 | -112.95941 | 24289 ft | 492 kts | 56° |
| 2026-04-20 07:27 | 37.29894 | -112.92354 | 24298 ft | 492 kts | 56° |
| 2026-04-20 07:27 | 37.31783 | -112.88771 | 24303 ft | 492 kts | 56° |
| 2026-04-20 07:28 | 37.33676 | -112.85175 | 24308 ft | 492 kts | 57° |
| 2026-04-20 07:28 | 37.35562 | -112.81587 | 24318 ft | 492 kts | 57° |
| 2026-04-20 07:28 | 37.37448 | -112.77998 | 24327 ft | 492 kts | 57° |
| 2026-04-20 07:28 | 37.39333 | -112.74404 | 24336 ft | 492 kts | 57° |
| 2026-04-20 07:29 | 37.41218 | -112.70809 | 24347 ft | 492 kts | 57° |
| 2026-04-20 07:29 | 37.43100 | -112.67215 | 24353 ft | 492 kts | 57° |
| 2026-04-20 07:29 | 37.44978 | -112.63624 | 24533 ft | 488 kts | 57° |
| 2026-04-20 07:29 | 37.46829 | -112.60080 | 24859 ft | 481 kts | 57° |
| 2026-04-20 07:30 | 37.48651 | -112.56590 | 25205 ft | 474 kts | 57° |
| 2026-04-20 07:30 | 37.50456 | -112.53127 | 25320 ft | 472 kts | 57° |
| 2026-04-20 07:30 | 37.52235 | -112.49711 | 25365 ft | 473 kts | 57° |
| 2026-04-20 07:30 | 37.54040 | -112.46243 | 25402 ft | 473 kts | 57° |
| 2026-04-20 07:31 | 37.55842 | -112.42775 | 25436 ft | 473 kts | 57° |
| 2026-04-20 07:31 | 37.57646 | -112.39300 | 25478 ft | 473 kts | 57° |
| 2026-04-20 07:31 | 37.59435 | -112.35851 | 25788 ft | 466 kts | 57° |
| 2026-04-20 07:31 | 37.61199 | -112.32446 | 26061 ft | 461 kts | 57° |
| 2026-04-20 07:32 | 37.62964 | -112.29087 | 26355 ft | 456 kts | 54° |
| 2026-04-20 07:32 | 37.64849 | -112.25900 | 26655 ft | 450 kts | 52° |
| 2026-04-20 07:32 | 37.66744 | -112.22796 | 26971 ft | 444 kts | 52° |
| 2026-04-20 07:32 | 37.68634 | -112.19748 | 27291 ft | 438 kts | 52° |
| 2026-04-20 07:33 | 37.70516 | -112.16737 | 27614 ft | 433 kts | 52° |
| 2026-04-20 07:33 | 37.72380 | -112.13760 | 27936 ft | 432 kts | 52° |
| 2026-04-20 07:33 | 37.74219 | -112.10823 | 28255 ft | 430 kts | 52° |
| 2026-04-20 07:33 | 37.76069 | -112.07861 | 28577 ft | 428 kts | 52° |
| 2026-04-20 07:34 | 37.77909 | -112.04912 | 28899 ft | 426 kts | 52° |
| 2026-04-20 07:34 | 37.79739 | -112.01972 | 29221 ft | 424 kts | 52° |
| 2026-04-20 07:34 | 37.81557 | -111.99048 | 29543 ft | 421 kts | 52° |
| 2026-04-20 07:35 | 37.85150 | -111.93257 | 30175 ft | 415 kts | 52° |
| 2026-04-20 07:35 | 37.86927 | -111.90390 | 30472 ft | 413 kts | 52° |
| 2026-04-20 07:35 | 37.88693 | -111.87537 | 30768 ft | 410 kts | 52° |
| 2026-04-20 07:35 | 37.90447 | -111.84702 | 31038 ft | 407 kts | 52° |
| 2026-04-20 07:36 | 37.92196 | -111.81871 | 31144 ft | 409 kts | 52° |
| 2026-04-20 07:36 | 37.93956 | -111.79022 | 31224 ft | 412 kts | 52° |
| 2026-04-20 07:36 | 37.97507 | -111.73266 | 31359 ft | 417 kts | 52° |
| 2026-04-20 07:37 | 38.01100 | -111.67431 | 31490 ft | 422 kts | 52° |
| 2026-04-20 07:37 | 38.04732 | -111.61521 | 31621 ft | 427 kts | 52° |
| 2026-04-20 07:38 | 38.08404 | -111.55536 | 31746 ft | 432 kts | 52° |
| 2026-04-20 07:38 | 38.12089 | -111.49519 | 31864 ft | 436 kts | 52° |
| 2026-04-20 07:39 | 38.15832 | -111.43396 | 31979 ft | 441 kts | 52° |
| 2026-04-20 07:39 | 38.19608 | -111.37206 | 32086 ft | 445 kts | 52° |
| 2026-04-20 07:40 | 38.23417 | -111.30952 | 32191 ft | 448 kts | 52° |
| 2026-04-20 07:40 | 38.27255 | -111.24638 | 32290 ft | 452 kts | 52° |
| 2026-04-20 07:41 | 38.31092 | -111.18312 | 32390 ft | 455 kts | 52° |
| 2026-04-20 07:41 | 38.34979 | -111.11891 | 32482 ft | 459 kts | 52° |
| 2026-04-20 07:42 | 38.38897 | -111.05407 | 32573 ft | 462 kts | 52° |
| 2026-04-20 07:42 | 38.42804 | -110.98927 | 32661 ft | 465 kts | 52° |
| 2026-04-20 07:43 | 38.46767 | -110.92343 | 32745 ft | 468 kts | 52° |
| 2026-04-20 07:43 | 38.50740 | -110.85727 | 32826 ft | 471 kts | 52° |
| 2026-04-20 07:44 | 38.54734 | -110.79063 | 32905 ft | 474 kts | 52° |
| 2026-04-20 07:44 | 38.58726 | -110.72389 | 32981 ft | 476 kts | 52° |
| 2026-04-20 07:45 | 38.62759 | -110.65632 | 33054 ft | 479 kts | 53° |
| 2026-04-20 07:45 | 38.66808 | -110.58833 | 33124 ft | 481 kts | 53° |
| 2026-04-20 07:46 | 38.70876 | -110.51990 | 33189 ft | 483 kts | 53° |
| 2026-04-20 07:46 | 38.74952 | -110.45117 | 33252 ft | 486 kts | 53° |
| 2026-04-20 07:47 | 38.79015 | -110.38252 | 33312 ft | 488 kts | 53° |
| 2026-04-20 07:47 | 38.83117 | -110.31306 | 33370 ft | 490 kts | 53° |
| 2026-04-20 07:48 | 38.87234 | -110.24320 | 33426 ft | 491 kts | 53° |
| 2026-04-20 07:48 | 38.91360 | -110.17303 | 33478 ft | 493 kts | 53° |
| 2026-04-20 07:49 | 38.95496 | -110.10255 | 33531 ft | 495 kts | 53° |
| 2026-04-20 07:49 | 38.99644 | -110.03169 | 33579 ft | 497 kts | 53° |
| 2026-04-20 07:50 | 39.03795 | -109.96064 | 33627 ft | 498 kts | 53° |
| 2026-04-20 07:50 | 39.07870 | -109.88807 | 33673 ft | 499 kts | 56° |
| 2026-04-20 07:51 | 39.11691 | -109.81319 | 33718 ft | 501 kts | 57° |
| 2026-04-20 07:51 | 39.15503 | -109.73794 | 33763 ft | 502 kts | 57° |
| 2026-04-20 07:52 | 39.19342 | -109.66314 | 33803 ft | 503 kts | 56° |
| 2026-04-20 07:52 | 39.23224 | -109.58789 | 33841 ft | 504 kts | 56° |
| 2026-04-20 07:53 | 39.27119 | -109.51234 | 33877 ft | 505 kts | 56° |
| 2026-04-20 07:53 | 39.30357 | -109.44936 | 33907 ft | 506 kts | 56° |
| 2026-04-20 07:54 | 39.34888 | -109.36098 | 33947 ft | 507 kts | 57° |
| 2026-04-20 07:54 | 39.38130 | -109.29758 | 33976 ft | 508 kts | 57° |
| 2026-04-20 07:55 | 39.42032 | -109.22112 | 34008 ft | 509 kts | 57° |
| 2026-04-20 07:55 | 39.45937 | -109.14440 | 34041 ft | 510 kts | 57° |
| 2026-04-20 07:56 | 39.49819 | -109.06795 | 34070 ft | 511 kts | 57° |
| 2026-04-20 07:56 | 39.53725 | -108.99086 | 34097 ft | 511 kts | 57° |
| 2026-04-20 07:57 | 39.57629 | -108.91361 | 34125 ft | 512 kts | 57° |
| 2026-04-20 07:57 | 39.61533 | -108.83616 | 34154 ft | 513 kts | 57° |
| 2026-04-20 07:58 | 39.65437 | -108.75854 | 34176 ft | 513 kts | 57° |
| 2026-04-20 07:58 | 39.69311 | -108.68131 | 34200 ft | 514 kts | 57° |
| 2026-04-20 07:59 | 39.73211 | -108.60337 | 34222 ft | 515 kts | 57° |
| 2026-04-20 07:59 | 39.77111 | -108.52524 | 34242 ft | 515 kts | 57° |
| 2026-04-20 08:00 | 39.80992 | -108.44731 | 34259 ft | 516 kts | 57° |
| 2026-04-20 08:00 | 39.84889 | -108.36887 | 34275 ft | 516 kts | 57° |
| 2026-04-20 08:01 | 39.88782 | -108.29030 | 34290 ft | 516 kts | 57° |
| 2026-04-20 08:01 | 39.92674 | -108.21156 | 34307 ft | 517 kts | 57° |
| 2026-04-20 08:02 | 39.96572 | -108.13249 | 34321 ft | 517 kts | 57° |
| 2026-04-20 08:02 | 40.00440 | -108.05385 | 34336 ft | 518 kts | 57° |
| 2026-04-20 08:03 | 40.04322 | -107.97471 | 34347 ft | 518 kts | 57° |
| 2026-04-20 08:03 | 40.08191 | -107.89520 | 34361 ft | 518 kts | 59° |
| 2026-04-20 08:04 | 40.11807 | -107.81362 | 34378 ft | 519 kts | 60° |
| 2026-04-20 08:04 | 40.15339 | -107.73130 | 34390 ft | 519 kts | 60° |
| 2026-04-20 08:05 | 40.18875 | -107.64968 | 34399 ft | 519 kts | 60° |
| 2026-04-20 08:05 | 40.22458 | -107.56763 | 34411 ft | 519 kts | 60° |
| 2026-04-20 08:06 | 40.26051 | -107.48539 | 34422 ft | 519 kts | 60° |
| 2026-04-20 08:06 | 40.29633 | -107.40317 | 34432 ft | 520 kts | 60° |
| 2026-04-20 08:07 | 40.33211 | -107.32077 | 34441 ft | 520 kts | 60° |
| 2026-04-20 08:07 | 40.36782 | -107.23828 | 34451 ft | 520 kts | 60° |
| 2026-04-20 08:08 | 40.40346 | -107.15575 | 34458 ft | 520 kts | 60° |
| 2026-04-20 08:08 | 40.43886 | -107.07353 | 34467 ft | 520 kts | 60° |
| 2026-04-20 08:09 | 40.47442 | -106.99074 | 34474 ft | 520 kts | 60° |
| 2026-04-20 08:09 | 40.51004 | -106.90756 | 34480 ft | 520 kts | 60° |
| 2026-04-20 08:10 | 40.54525 | -106.82515 | 34487 ft | 520 kts | 60° |
| 2026-04-20 08:10 | 40.58069 | -106.74195 | 34500 ft | 520 kts | 61° |
| 2026-04-20 08:11 | 40.61603 | -106.65874 | 34509 ft | 520 kts | 61° |
| 2026-04-20 08:11 | 40.65132 | -106.57545 | 34515 ft | 520 kts | 61° |
| 2026-04-20 08:12 | 40.68632 | -106.49260 | 34520 ft | 520 kts | 61° |
| 2026-04-20 08:12 | 40.72151 | -106.40907 | 34524 ft | 521 kts | 61° |
| 2026-04-20 08:13 | 40.75660 | -106.32556 | 34529 ft | 521 kts | 61° |
| 2026-04-20 08:13 | 40.79163 | -106.24195 | 34532 ft | 521 kts | 61° |
| 2026-04-20 08:14 | 40.82665 | -106.15813 | 34536 ft | 521 kts | 61° |
| 2026-04-20 08:14 | 40.86163 | -106.07417 | 34545 ft | 521 kts | 61° |
| 2026-04-20 08:15 | 40.89626 | -105.99082 | 34548 ft | 521 kts | 61° |
| 2026-04-20 08:15 | 40.93109 | -105.90677 | 34552 ft | 521 kts | 61° |
| 2026-04-20 08:16 | 40.96584 | -105.82265 | 34557 ft | 521 kts | 61° |
| 2026-04-20 08:16 | 41.00060 | -105.73829 | 34559 ft | 521 kts | 62° |
| 2026-04-20 08:17 | 41.03500 | -105.65455 | 34561 ft | 521 kts | 62° |
| 2026-04-20 08:17 | 41.06960 | -105.57010 | 34564 ft | 521 kts | 62° |
| 2026-04-20 08:18 | 41.10414 | -105.48556 | 34566 ft | 521 kts | 62° |
| 2026-04-20 08:18 | 41.13867 | -105.40079 | 34570 ft | 521 kts | 62° |
| 2026-04-20 08:19 | 41.17306 | -105.31612 | 34573 ft | 521 kts | 62° |
| 2026-04-20 08:19 | 41.20716 | -105.23195 | 34576 ft | 521 kts | 62° |
| 2026-04-20 08:20 | 41.24165 | -105.14655 | 34579 ft | 521 kts | 62° |
| 2026-04-20 08:20 | 41.27566 | -105.06212 | 34582 ft | 521 kts | 62° |
| 2026-04-20 08:21 | 41.30989 | -104.97688 | 34584 ft | 521 kts | 62° |
| 2026-04-20 08:21 | 41.34401 | -104.89167 | 34586 ft | 521 kts | 62° |
| 2026-04-20 08:22 | 41.37784 | -104.80694 | 34588 ft | 521 kts | 62° |
| 2026-04-20 08:22 | 41.41184 | -104.72154 | 34591 ft | 521 kts | 62° |
| 2026-04-20 08:23 | 41.44581 | -104.63595 | 34593 ft | 521 kts | 62° |
| 2026-04-20 08:23 | 41.47965 | -104.55046 | 34595 ft | 521 kts | 62° |
| 2026-04-20 08:24 | 41.51326 | -104.46530 | 34596 ft | 521 kts | 62° |
| 2026-04-20 08:24 | 41.54700 | -104.37957 | 34598 ft | 521 kts | 62° |
| 2026-04-20 08:25 | 41.58070 | -104.29367 | 34600 ft | 521 kts | 62° |
| 2026-04-20 08:25 | 41.61433 | -104.20772 | 34602 ft | 521 kts | 62° |
| 2026-04-20 08:26 | 41.64768 | -104.12221 | 34604 ft | 521 kts | 63° |
| 2026-04-20 08:26 | 41.68118 | -104.03608 | 34607 ft | 521 kts | 63° |
| 2026-04-20 08:27 | 41.71464 | -103.94979 | 34609 ft | 521 kts | 63° |
| 2026-04-20 08:27 | 41.74800 | -103.86350 | 34612 ft | 521 kts | 63° |
| 2026-04-20 08:28 | 41.78106 | -103.77771 | 34615 ft | 521 kts | 63° |
| 2026-04-20 08:28 | 41.81431 | -103.69121 | 34619 ft | 521 kts | 63° |
| 2026-04-20 08:29 | 41.84750 | -103.60458 | 34620 ft | 521 kts | 63° |
| 2026-04-20 08:29 | 41.88059 | -103.51799 | 34623 ft | 521 kts | 63° |
| 2026-04-20 08:30 | 41.91305 | -103.43088 | 34624 ft | 521 kts | 65° |
| 2026-04-20 08:30 | 41.94256 | -103.34243 | 34626 ft | 521 kts | 66° |
| 2026-04-20 08:31 | 41.97174 | -103.25322 | 34627 ft | 521 kts | 66° |
| 2026-04-20 08:31 | 42.00127 | -103.16408 | 34629 ft | 521 kts | 66° |
| 2026-04-20 08:32 | 42.03101 | -103.07497 | 34631 ft | 521 kts | 66° |
| 2026-04-20 08:32 | 42.06053 | -102.98643 | 34633 ft | 521 kts | 66° |
| 2026-04-20 08:33 | 42.10497 | -102.85253 | 34635 ft | 522 kts | 66° |
| 2026-04-20 08:34 | 42.13448 | -102.76319 | 34637 ft | 522 kts | 66° |
| 2026-04-20 08:34 | 42.16379 | -102.67414 | 34639 ft | 522 kts | 66° |
| 2026-04-20 08:35 | 42.19316 | -102.58465 | 34640 ft | 522 kts | 66° |
| 2026-04-20 08:35 | 42.22246 | -102.49507 | 34643 ft | 522 kts | 66° |
| 2026-04-20 08:36 | 42.25172 | -102.40529 | 34645 ft | 522 kts | 66° |
| 2026-04-20 08:36 | 42.28087 | -102.31558 | 34648 ft | 522 kts | 66° |
| 2026-04-20 08:37 | 42.30981 | -102.22622 | 34651 ft | 522 kts | 66° |
| 2026-04-20 08:37 | 42.33888 | -102.13615 | 34653 ft | 522 kts | 66° |
| 2026-04-20 08:38 | 42.36786 | -102.04604 | 34656 ft | 522 kts | 66° |
| 2026-04-20 08:38 | 42.39675 | -101.95594 | 34658 ft | 522 kts | 66° |
| 2026-04-20 08:39 | 42.42539 | -101.86629 | 34659 ft | 522 kts | 66° |
| 2026-04-20 08:39 | 42.45417 | -101.77592 | 34662 ft | 522 kts | 67° |
| 2026-04-20 08:40 | 42.48269 | -101.68603 | 34663 ft | 522 kts | 67° |
| 2026-04-20 08:40 | 42.51135 | -101.59542 | 34666 ft | 522 kts | 67° |
| 2026-04-20 08:41 | 42.53989 | -101.50489 | 34668 ft | 522 kts | 67° |
| 2026-04-20 08:41 | 42.56823 | -101.41467 | 34672 ft | 522 kts | 67° |
| 2026-04-20 08:42 | 42.59662 | -101.32400 | 34675 ft | 522 kts | 67° |
| 2026-04-20 08:42 | 42.62496 | -101.23317 | 34678 ft | 522 kts | 67° |
| 2026-04-20 08:43 | 42.64848 | -101.15752 | 34680 ft | 522 kts | 67° |
| 2026-04-20 08:43 | 42.67670 | -101.06652 | 34682 ft | 522 kts | 67° |
| 2026-04-20 08:44 | 42.70469 | -100.97592 | 34686 ft | 522 kts | 67° |
| 2026-04-20 08:44 | 42.73276 | -100.88474 | 34688 ft | 522 kts | 67° |
| 2026-04-20 08:45 | 42.76079 | -100.79339 | 34690 ft | 522 kts | 68° |
| 2026-04-20 08:45 | 42.78870 | -100.70209 | 34690 ft | 522 kts | 68° |
| 2026-04-20 08:46 | 42.81651 | -100.61082 | 34692 ft | 522 kts | 68° |
| 2026-04-20 08:46 | 42.84411 | -100.51990 | 34694 ft | 522 kts | 68° |
| 2026-04-20 08:47 | 42.87182 | -100.42832 | 34697 ft | 522 kts | 68° |
| 2026-04-20 08:47 | 42.89944 | -100.33670 | 34700 ft | 522 kts | 68° |
| 2026-04-20 08:48 | 42.92700 | -100.24499 | 34704 ft | 522 kts | 68° |
| 2026-04-20 08:48 | 42.95430 | -100.15379 | 34706 ft | 522 kts | 68° |
| 2026-04-20 08:49 | 42.98166 | -100.06208 | 34709 ft | 522 kts | 68° |
| 2026-04-20 08:49 | 43.00912 | -99.97020 | 34710 ft | 522 kts | 67° |
| 2026-04-20 08:50 | 43.03877 | -99.87942 | 34712 ft | 522 kts | 65° |
| 2026-04-20 08:50 | 43.06910 | -99.78912 | 34714 ft | 522 kts | 65° |
| 2026-04-20 08:51 | 43.09886 | -99.69925 | 34716 ft | 522 kts | 66° |
| 2026-04-20 08:51 | 43.12857 | -99.60830 | 34718 ft | 522 kts | 66° |
| 2026-04-20 08:52 | 43.15809 | -99.51737 | 34721 ft | 522 kts | 66° |
| 2026-04-20 08:52 | 43.18751 | -99.42645 | 34723 ft | 522 kts | 66° |
| 2026-04-20 08:53 | 43.21674 | -99.33581 | 34725 ft | 522 kts | 66° |
| 2026-04-20 08:53 | 43.24606 | -99.24465 | 34729 ft | 522 kts | 66° |
| 2026-04-20 08:54 | 43.27530 | -99.15341 | 34732 ft | 522 kts | 66° |
| 2026-04-20 08:54 | 43.30445 | -99.06214 | 34734 ft | 522 kts | 66° |
| 2026-04-20 08:55 | 43.33354 | -98.97072 | 34737 ft | 522 kts | 66° |
| 2026-04-20 08:55 | 43.36256 | -98.87921 | 34739 ft | 522 kts | 66° |
| 2026-04-20 08:56 | 43.39137 | -98.78806 | 34741 ft | 522 kts | 66° |
| 2026-04-20 08:56 | 43.42031 | -98.69620 | 34743 ft | 522 kts | 66° |
| 2026-04-20 08:57 | 43.44894 | -98.60495 | 34745 ft | 522 kts | 67° |
| 2026-04-20 08:57 | 43.47770 | -98.51303 | 34747 ft | 522 kts | 67° |
| 2026-04-20 08:58 | 43.50639 | -98.42097 | 34750 ft | 522 kts | 67° |
| 2026-04-20 08:58 | 43.53497 | -98.32894 | 34751 ft | 522 kts | 67° |
| 2026-04-20 08:59 | 43.56330 | -98.23739 | 34753 ft | 522 kts | 67° |
| 2026-04-20 08:59 | 43.59179 | -98.14500 | 34754 ft | 522 kts | 67° |
| 2026-04-20 09:00 | 43.62002 | -98.05315 | 34755 ft | 522 kts | 67° |
| 2026-04-20 09:00 | 43.64830 | -97.96078 | 34758 ft | 522 kts | 67° |
| 2026-04-20 09:01 | 43.67654 | -97.86822 | 34760 ft | 522 kts | 67° |
| 2026-04-20 09:01 | 43.70471 | -97.77558 | 34763 ft | 522 kts | 67° |
| 2026-04-20 09:02 | 43.73276 | -97.68297 | 34765 ft | 522 kts | 67° |
| 2026-04-20 09:02 | 43.76079 | -97.59010 | 34767 ft | 522 kts | 68° |
| 2026-04-20 09:03 | 43.78854 | -97.49782 | 34769 ft | 522 kts | 68° |
| 2026-04-20 09:03 | 43.81644 | -97.40473 | 34771 ft | 522 kts | 68° |
| 2026-04-20 09:04 | 43.84420 | -97.31175 | 34773 ft | 522 kts | 68° |
| 2026-04-20 09:04 | 43.87193 | -97.21855 | 34776 ft | 522 kts | 68° |
| 2026-04-20 09:05 | 43.89954 | -97.12537 | 34779 ft | 522 kts | 68° |
| 2026-04-20 09:05 | 43.92691 | -97.03268 | 34782 ft | 522 kts | 68° |
| 2026-04-20 09:06 | 43.95441 | -96.93924 | 34785 ft | 522 kts | 68° |
| 2026-04-20 09:06 | 43.98177 | -96.84588 | 34787 ft | 522 kts | 68° |
| 2026-04-20 09:07 | 44.00909 | -96.75234 | 34789 ft | 522 kts | 68° |
| 2026-04-20 09:07 | 44.03631 | -96.65878 | 34791 ft | 522 kts | 68° |
| 2026-04-20 09:08 | 44.06350 | -96.56498 | 34793 ft | 522 kts | 68° |
| 2026-04-20 09:08 | 44.09045 | -96.47168 | 34795 ft | 522 kts | 68° |
| 2026-04-20 09:09 | 44.11749 | -96.37771 | 34797 ft | 522 kts | 68° |
| 2026-04-20 09:09 | 44.14445 | -96.28365 | 34800 ft | 522 kts | 68° |
| 2026-04-20 09:10 | 44.17133 | -96.18952 | 34802 ft | 522 kts | 68° |
| 2026-04-20 09:10 | 44.19797 | -96.09585 | 34804 ft | 522 kts | 68° |
| 2026-04-20 09:11 | 44.22470 | -96.00155 | 34805 ft | 522 kts | 69° |
| 2026-04-20 09:11 | 44.25137 | -95.90708 | 34807 ft | 522 kts | 69° |
| 2026-04-20 09:12 | 44.27791 | -95.81274 | 34810 ft | 522 kts | 69° |
| 2026-04-20 09:12 | 44.30421 | -95.71884 | 34810 ft | 522 kts | 69° |
| 2026-04-20 09:13 | 44.33063 | -95.62418 | 34815 ft | 522 kts | 69° |
| 2026-04-20 09:13 | 44.35697 | -95.52946 | 34819 ft | 522 kts | 69° |
| 2026-04-20 09:14 | 44.38319 | -95.43478 | 34821 ft | 522 kts | 69° |
| 2026-04-20 09:14 | 44.40915 | -95.34066 | 34822 ft | 522 kts | 69° |
| 2026-04-20 09:15 | 44.43525 | -95.24570 | 34824 ft | 522 kts | 69° |
| 2026-04-20 09:15 | 44.46142 | -95.15078 | 34819 ft | 522 kts | 67° |
| 2026-04-20 09:16 | 44.49446 | -95.05996 | 34817 ft | 522 kts | 62° |
| 2026-04-20 09:16 | 44.52961 | -94.97084 | 34819 ft | 522 kts | 61° |
| 2026-04-20 09:17 | 44.56482 | -94.88249 | 34822 ft | 522 kts | 61° |
| 2026-04-20 09:17 | 44.60010 | -94.79350 | 34826 ft | 522 kts | 61° |
| 2026-04-20 09:18 | 44.63532 | -94.70409 | 34828 ft | 523 kts | 61° |
| 2026-04-20 09:18 | 44.67044 | -94.61453 | 34830 ft | 523 kts | 61° |
| 2026-04-20 09:19 | 44.70548 | -94.52489 | 34832 ft | 523 kts | 61° |
| 2026-04-20 09:19 | 44.74039 | -94.43528 | 34835 ft | 523 kts | 61° |
| 2026-04-20 09:20 | 44.77510 | -94.34594 | 34837 ft | 523 kts | 61° |
| 2026-04-20 09:20 | 44.80997 | -94.25588 | 34840 ft | 523 kts | 62° |
| 2026-04-20 09:21 | 44.84470 | -94.16590 | 34843 ft | 523 kts | 62° |
| 2026-04-20 09:21 | 44.87938 | -94.07576 | 34846 ft | 523 kts | 62° |
| 2026-04-20 09:22 | 44.91377 | -93.98608 | 34849 ft | 523 kts | 62° |
| 2026-04-20 09:22 | 44.94832 | -93.89567 | 34851 ft | 523 kts | 62° |
| 2026-04-20 09:23 | 44.98282 | -93.80512 | 34855 ft | 523 kts | 62° |
| 2026-04-20 09:23 | 45.01723 | -93.71449 | 34859 ft | 523 kts | 62° |
| 2026-04-20 09:24 | 45.05153 | -93.62386 | 34863 ft | 522 kts | 62° |
| 2026-04-20 09:24 | 45.08561 | -93.53352 | 34866 ft | 522 kts | 62° |
| 2026-04-20 09:25 | 45.11978 | -93.44265 | 34868 ft | 523 kts | 62° |
| 2026-04-20 09:25 | 45.15394 | -93.35177 | 34868 ft | 523 kts | 61° |
| 2026-04-20 09:26 | 45.19069 | -93.26361 | 34871 ft | 522 kts | 58° |
| 2026-04-20 09:26 | 45.22892 | -93.17598 | 34874 ft | 523 kts | 58° |
| 2026-04-20 09:27 | 45.26681 | -93.08782 | 34878 ft | 523 kts | 59° |
| 2026-04-20 09:27 | 45.30425 | -92.99927 | 34881 ft | 522 kts | 59° |
| 2026-04-20 09:28 | 45.34148 | -92.91056 | 34883 ft | 522 kts | 59° |
| 2026-04-20 09:28 | 45.37868 | -92.82162 | 34888 ft | 523 kts | 59° |
| 2026-04-20 09:29 | 45.41553 | -92.73331 | 34892 ft | 522 kts | 59° |
| 2026-04-20 09:29 | 45.45259 | -92.64422 | 34897 ft | 523 kts | 59° |
| 2026-04-20 09:30 | 45.48961 | -92.55496 | 34902 ft | 523 kts | 59° |
| 2026-04-20 09:30 | 45.52655 | -92.46561 | 34905 ft | 523 kts | 59° |
| 2026-04-20 09:31 | 45.56344 | -92.37611 | 34908 ft | 523 kts | 59° |
| 2026-04-20 09:31 | 45.60021 | -92.28658 | 34911 ft | 523 kts | 59° |
| 2026-04-20 09:32 | 45.63695 | -92.19684 | 34915 ft | 523 kts | 60° |
| 2026-04-20 09:32 | 45.67348 | -92.10735 | 34918 ft | 523 kts | 60° |
| 2026-04-20 09:33 | 45.70387 | -92.03267 | 34920 ft | 523 kts | 60° |
| 2026-04-20 09:33 | 45.74040 | -91.94261 | 34924 ft | 523 kts | 60° |
| 2026-04-20 09:34 | 45.77688 | -91.85241 | 34927 ft | 523 kts | 60° |
| 2026-04-20 09:34 | 45.83150 | -91.71680 | 34933 ft | 523 kts | 60° |
| 2026-04-20 09:35 | 45.86786 | -91.62614 | 34935 ft | 523 kts | 60° |
| 2026-04-20 09:35 | 45.90390 | -91.53600 | 34938 ft | 523 kts | 60° |
| 2026-04-20 09:36 | 45.94008 | -91.44522 | 34939 ft | 523 kts | 60° |
| 2026-04-20 09:36 | 45.97625 | -91.35416 | 34942 ft | 523 kts | 60° |
| 2026-04-20 09:37 | 46.01208 | -91.26362 | 34945 ft | 523 kts | 60° |
| 2026-04-20 09:37 | 46.04804 | -91.17249 | 34947 ft | 523 kts | 60° |
| 2026-04-20 09:38 | 46.08391 | -91.08129 | 34949 ft | 523 kts | 60° |
| 2026-04-20 09:38 | 46.11971 | -90.98995 | 34951 ft | 523 kts | 60° |
| 2026-04-20 09:39 | 46.15525 | -90.89898 | 34953 ft | 523 kts | 60° |
| 2026-04-20 09:39 | 46.19094 | -90.80731 | 34955 ft | 523 kts | 60° |
| 2026-04-20 09:40 | 46.22657 | -90.71549 | 34957 ft | 523 kts | 61° |
| 2026-04-20 09:40 | 46.26210 | -90.62364 | 34960 ft | 523 kts | 61° |
| 2026-04-20 09:41 | 46.29737 | -90.53213 | 34962 ft | 523 kts | 61° |
| 2026-04-20 09:41 | 46.33277 | -90.43997 | 34963 ft | 524 kts | 61° |
| 2026-04-20 09:42 | 46.36811 | -90.34766 | 34966 ft | 524 kts | 61° |
| 2026-04-20 09:42 | 46.40337 | -90.25524 | 34969 ft | 524 kts | 61° |
| 2026-04-20 09:43 | 46.43832 | -90.16334 | 34970 ft | 524 kts | 61° |
| 2026-04-20 09:43 | 46.47345 | -90.07066 | 34973 ft | 524 kts | 61° |
| 2026-04-20 09:44 | 46.50865 | -89.97786 | 34972 ft | 524 kts | 60° |
| 2026-04-20 09:44 | 46.54772 | -89.88929 | 34972 ft | 524 kts | 56° |
| 2026-04-20 09:45 | 46.58894 | -89.80176 | 34974 ft | 524 kts | 56° |
| 2026-04-20 09:45 | 46.62962 | -89.71365 | 34977 ft | 524 kts | 56° |
| 2026-04-20 09:46 | 46.66942 | -89.62550 | 34980 ft | 524 kts | 57° |
| 2026-04-20 09:46 | 46.70926 | -89.53646 | 34980 ft | 524 kts | 57° |
| 2026-04-20 09:47 | 46.74897 | -89.44738 | 34981 ft | 524 kts | 57° |
| 2026-04-20 09:47 | 46.78869 | -89.35811 | 34984 ft | 524 kts | 57° |
| 2026-04-20 09:48 | 46.82830 | -89.26882 | 34987 ft | 524 kts | 57° |
| 2026-04-20 09:48 | 46.86760 | -89.17995 | 34990 ft | 524 kts | 57° |
| 2026-04-20 09:49 | 46.90710 | -89.09033 | 34991 ft | 524 kts | 57° |
| 2026-04-20 09:49 | 46.94652 | -89.00060 | 34994 ft | 524 kts | 57° |
| 2026-04-20 09:50 | 46.98593 | -88.91060 | 34998 ft | 524 kts | 57° |
| 2026-04-20 09:50 | 47.02522 | -88.82059 | 35001 ft | 524 kts | 57° |
| 2026-04-20 09:51 | 47.06440 | -88.73053 | 35003 ft | 524 kts | 57° |
| 2026-04-20 09:51 | 47.10328 | -88.64089 | 35005 ft | 524 kts | 57° |
| 2026-04-20 09:52 | 47.14234 | -88.55052 | 35008 ft | 524 kts | 58° |
| 2026-04-20 09:52 | 47.18123 | -88.45984 | 35007 ft | 524 kts | 59° |
| 2026-04-20 09:53 | 47.21624 | -88.36579 | 35009 ft | 524 kts | 63° |
| 2026-04-20 09:53 | 47.24951 | -88.27038 | 35010 ft | 524 kts | 63° |
| 2026-04-20 09:54 | 47.28324 | -88.17512 | 35013 ft | 524 kts | 62° |
| 2026-04-20 09:54 | 47.31712 | -88.08076 | 35015 ft | 524 kts | 62° |
| 2026-04-20 09:55 | 47.35131 | -87.98577 | 35017 ft | 524 kts | 62° |
| 2026-04-20 09:55 | 47.38539 | -87.89077 | 35019 ft | 524 kts | 62° |
| 2026-04-20 09:56 | 47.41938 | -87.79554 | 35023 ft | 524 kts | 62° |
| 2026-04-20 09:56 | 47.45330 | -87.70016 | 35026 ft | 524 kts | 62° |
| 2026-04-20 09:57 | 47.48686 | -87.60545 | 35028 ft | 524 kts | 62° |
| 2026-04-20 09:57 | 47.52064 | -87.50974 | 35030 ft | 524 kts | 62° |
| 2026-04-20 09:58 | 47.55433 | -87.41396 | 35033 ft | 524 kts | 63° |
| 2026-04-20 09:58 | 47.58776 | -87.31858 | 35035 ft | 524 kts | 63° |
| 2026-04-20 09:59 | 47.62130 | -87.22252 | 35037 ft | 524 kts | 63° |
| 2026-04-20 09:59 | 47.65475 | -87.12638 | 35039 ft | 524 kts | 63° |
| 2026-04-20 10:00 | 47.68813 | -87.03007 | 35040 ft | 524 kts | 63° |
| 2026-04-20 10:00 | 47.72119 | -86.93435 | 35042 ft | 524 kts | 63° |
| 2026-04-20 10:01 | 47.75438 | -86.83788 | 35044 ft | 524 kts | 63° |
| 2026-04-20 10:01 | 47.78753 | -86.74118 | 35046 ft | 524 kts | 63° |
| 2026-04-20 10:02 | 47.82056 | -86.64447 | 35049 ft | 524 kts | 63° |
| 2026-04-20 10:02 | 47.85351 | -86.54762 | 35050 ft | 524 kts | 63° |
| 2026-04-20 10:03 | 47.88622 | -86.45111 | 35052 ft | 524 kts | 63° |
| 2026-04-20 10:03 | 47.91903 | -86.35396 | 35054 ft | 524 kts | 63° |
| 2026-04-20 10:04 | 47.95177 | -86.25667 | 35057 ft | 524 kts | 63° |
| 2026-04-20 10:04 | 47.98435 | -86.15944 | 35059 ft | 524 kts | 63° |
| 2026-04-20 10:05 | 48.01699 | -86.06170 | 35061 ft | 524 kts | 64° |
| 2026-04-20 10:05 | 48.04924 | -85.96473 | 35062 ft | 524 kts | 64° |
| 2026-04-20 10:06 | 48.08168 | -85.86685 | 35066 ft | 524 kts | 64° |
| 2026-04-20 10:06 | 48.11403 | -85.76884 | 35069 ft | 524 kts | 64° |
| 2026-04-20 10:07 | 48.14608 | -85.67138 | 35072 ft | 524 kts | 64° |
| 2026-04-20 10:07 | 48.17827 | -85.57313 | 35075 ft | 524 kts | 64° |
| 2026-04-20 10:08 | 48.21032 | -85.47489 | 35079 ft | 524 kts | 64° |
| 2026-04-20 10:08 | 48.24209 | -85.37716 | 35083 ft | 524 kts | 64° |
| 2026-04-20 10:09 | 48.27401 | -85.27860 | 35086 ft | 524 kts | 64° |
| 2026-04-20 10:09 | 48.30582 | -85.17997 | 35090 ft | 524 kts | 64° |
| 2026-04-20 10:10 | 48.33753 | -85.08128 | 35093 ft | 524 kts | 64° |
| 2026-04-20 10:10 | 48.36901 | -84.98291 | 35096 ft | 524 kts | 64° |
| 2026-04-20 10:11 | 48.40060 | -84.88383 | 35098 ft | 524 kts | 64° |
| 2026-04-20 10:11 | 48.43208 | -84.78469 | 35100 ft | 524 kts | 64° |
| 2026-04-20 10:12 | 48.46346 | -84.68548 | 35103 ft | 524 kts | 64° |
| 2026-04-20 10:12 | 48.49476 | -84.58611 | 35104 ft | 524 kts | 65° |
| 2026-04-20 10:13 | 48.52586 | -84.48700 | 35107 ft | 524 kts | 65° |
| 2026-04-20 10:13 | 48.55696 | -84.38748 | 35110 ft | 524 kts | 65° |
| 2026-04-20 10:14 | 48.58808 | -84.28752 | 35112 ft | 524 kts | 65° |
| 2026-04-20 10:14 | 48.61886 | -84.18827 | 35115 ft | 524 kts | 65° |
| 2026-04-20 10:15 | 48.64976 | -84.08819 | 35117 ft | 524 kts | 65° |
| 2026-04-20 10:15 | 48.68058 | -83.98799 | 35120 ft | 524 kts | 65° |
| 2026-04-20 10:16 | 48.71128 | -83.88776 | 35122 ft | 524 kts | 65° |
| 2026-04-20 10:16 | 48.74174 | -83.78795 | 35125 ft | 524 kts | 65° |
| 2026-04-20 10:17 | 48.77227 | -83.68746 | 35127 ft | 525 kts | 65° |
| 2026-04-20 10:17 | 48.80270 | -83.58691 | 35128 ft | 525 kts | 65° |
| 2026-04-20 10:18 | 48.83289 | -83.48672 | 35131 ft | 525 kts | 65° |
| 2026-04-20 10:18 | 48.86320 | -83.38576 | 35133 ft | 525 kts | 65° |
| 2026-04-20 10:19 | 48.89339 | -83.28474 | 35136 ft | 525 kts | 65° |
| 2026-04-20 10:19 | 48.92354 | -83.18348 | 35138 ft | 525 kts | 66° |
| 2026-04-20 10:20 | 48.95336 | -83.08287 | 35140 ft | 525 kts | 66° |
| 2026-04-20 10:20 | 48.98324 | -82.98167 | 35140 ft | 525 kts | 66° |
| 2026-04-20 10:21 | 49.01311 | -82.88005 | 35142 ft | 525 kts | 66° |
| 2026-04-20 10:21 | 49.03786 | -82.79555 | 35144 ft | 525 kts | 66° |
| 2026-04-20 10:22 | 49.06758 | -82.69368 | 35147 ft | 525 kts | 66° |
| 2026-04-20 10:22 | 49.09699 | -82.59244 | 35149 ft | 525 kts | 66° |
| 2026-04-20 10:23 | 49.12648 | -82.49054 | 35151 ft | 525 kts | 66° |
| 2026-04-20 10:23 | 49.15585 | -82.38857 | 35153 ft | 525 kts | 66° |
| 2026-04-20 10:24 | 49.18514 | -82.28645 | 35156 ft | 525 kts | 66° |
| 2026-04-20 10:24 | 49.21441 | -82.18398 | 35158 ft | 525 kts | 66° |
| 2026-04-20 10:25 | 49.24353 | -82.08160 | 35160 ft | 525 kts | 66° |
| 2026-04-20 10:25 | 49.27241 | -81.97961 | 35162 ft | 525 kts | 66° |
| 2026-04-20 10:26 | 49.30137 | -81.87694 | 35164 ft | 525 kts | 67° |
| 2026-04-20 10:26 | 49.33025 | -81.77407 | 35164 ft | 525 kts | 67° |
| 2026-04-20 10:27 | 49.35903 | -81.67111 | 35166 ft | 525 kts | 67° |
| 2026-04-20 10:27 | 49.38755 | -81.56862 | 35168 ft | 525 kts | 67° |
| 2026-04-20 10:28 | 49.41622 | -81.46520 | 35169 ft | 525 kts | 67° |
| 2026-04-20 10:28 | 49.44453 | -81.36258 | 35173 ft | 525 kts | 67° |
| 2026-04-20 10:29 | 49.47294 | -81.25916 | 35175 ft | 525 kts | 67° |
| 2026-04-20 10:29 | 49.50126 | -81.15562 | 35176 ft | 525 kts | 67° |
| 2026-04-20 10:30 | 49.52952 | -81.05183 | 35177 ft | 525 kts | 67° |
| 2026-04-20 10:30 | 49.55746 | -80.94878 | 35180 ft | 525 kts | 68° |
| 2026-04-20 10:31 | 49.58554 | -80.84471 | 35182 ft | 525 kts | 68° |
| 2026-04-20 10:31 | 49.61351 | -80.74063 | 35185 ft | 525 kts | 68° |
| 2026-04-20 10:32 | 49.64134 | -80.63659 | 35187 ft | 525 kts | 68° |
| 2026-04-20 10:32 | 49.66909 | -80.53235 | 35190 ft | 525 kts | 68° |
| 2026-04-20 10:33 | 49.69659 | -80.42861 | 35192 ft | 525 kts | 68° |
| 2026-04-20 10:33 | 49.72417 | -80.32409 | 35194 ft | 525 kts | 68° |
| 2026-04-20 10:34 | 49.75165 | -80.21948 | 35197 ft | 525 kts | 68° |
| 2026-04-20 10:35 | 49.79268 | -80.06238 | 35200 ft | 525 kts | 68° |
| 2026-04-20 10:35 | 49.81992 | -79.95748 | 35202 ft | 525 kts | 68° |
| 2026-04-20 10:36 | 49.84691 | -79.85309 | 35205 ft | 525 kts | 68° |
| 2026-04-20 10:36 | 49.87398 | -79.74789 | 35206 ft | 525 kts | 68° |
| 2026-04-20 10:37 | 49.90105 | -79.64219 | 35208 ft | 525 kts | 68° |
| 2026-04-20 10:37 | 49.92776 | -79.53742 | 35209 ft | 525 kts | 69° |
| 2026-04-20 10:38 | 49.95456 | -79.43179 | 35210 ft | 525 kts | 69° |
| 2026-04-20 10:38 | 49.98125 | -79.32611 | 35213 ft | 525 kts | 69° |
| 2026-04-20 10:39 | 50.00785 | -79.22030 | 35216 ft | 525 kts | 69° |
| 2026-04-20 10:39 | 50.03415 | -79.11517 | 35218 ft | 525 kts | 69° |
| 2026-04-20 10:40 | 50.06056 | -79.00912 | 35221 ft | 525 kts | 69° |
| 2026-04-20 10:40 | 50.08690 | -78.90281 | 35222 ft | 525 kts | 69° |
| 2026-04-20 10:41 | 50.11294 | -78.79724 | 35225 ft | 525 kts | 69° |
| 2026-04-20 10:41 | 50.13905 | -78.69087 | 35226 ft | 525 kts | 69° |
| 2026-04-20 10:42 | 50.16506 | -78.58440 | 35228 ft | 525 kts | 69° |
| 2026-04-20 10:42 | 50.19097 | -78.47780 | 35231 ft | 525 kts | 69° |
| 2026-04-20 10:43 | 50.21663 | -78.37171 | 35233 ft | 525 kts | 69° |
| 2026-04-20 10:43 | 50.24234 | -78.26495 | 35235 ft | 525 kts | 69° |
| 2026-04-20 10:44 | 50.26796 | -78.15801 | 35237 ft | 525 kts | 70° |
| 2026-04-20 10:44 | 50.29345 | -78.05107 | 35239 ft | 525 kts | 70° |
| 2026-04-20 10:45 | 50.31886 | -77.94396 | 35242 ft | 525 kts | 70° |
| 2026-04-20 10:45 | 50.34418 | -77.83670 | 35244 ft | 525 kts | 70° |
| 2026-04-20 10:46 | 50.36929 | -77.72980 | 35246 ft | 525 kts | 70° |
| 2026-04-20 10:46 | 50.39446 | -77.62209 | 35249 ft | 525 kts | 70° |
| 2026-04-20 10:47 | 50.41947 | -77.51454 | 35250 ft | 525 kts | 70° |
| 2026-04-20 10:47 | 50.44426 | -77.40743 | 35252 ft | 525 kts | 70° |
| 2026-04-20 10:48 | 50.46912 | -77.29943 | 35255 ft | 525 kts | 70° |
| 2026-04-20 10:48 | 50.49389 | -77.19131 | 35257 ft | 525 kts | 70° |
| 2026-04-20 10:49 | 50.51837 | -77.08386 | 35259 ft | 525 kts | 70° |
| 2026-04-20 10:49 | 50.54292 | -76.97559 | 35262 ft | 525 kts | 70° |
| 2026-04-20 10:50 | 50.56738 | -76.86717 | 35264 ft | 525 kts | 70° |
| 2026-04-20 10:50 | 50.59173 | -76.75867 | 35266 ft | 525 kts | 71° |
| 2026-04-20 10:51 | 50.61586 | -76.65056 | 35268 ft | 525 kts | 71° |
| 2026-04-20 10:51 | 50.64001 | -76.54183 | 35270 ft | 526 kts | 71° |
| 2026-04-20 10:52 | 50.66409 | -76.43287 | 35272 ft | 526 kts | 71° |
| 2026-04-20 10:52 | 50.68802 | -76.32395 | 35273 ft | 526 kts | 71° |
| 2026-04-20 10:53 | 50.71174 | -76.21549 | 35276 ft | 526 kts | 71° |
| 2026-04-20 10:53 | 50.73552 | -76.10614 | 35278 ft | 526 kts | 71° |
| 2026-04-20 10:54 | 50.75918 | -75.99675 | 35281 ft | 526 kts | 71° |
| 2026-04-20 10:54 | 50.78276 | -75.88716 | 35284 ft | 526 kts | 71° |
| 2026-04-20 10:55 | 50.80609 | -75.77817 | 35286 ft | 526 kts | 71° |
| 2026-04-20 10:55 | 50.82943 | -75.66850 | 35287 ft | 526 kts | 71° |
| 2026-04-20 10:56 | 50.85265 | -75.55882 | 35288 ft | 526 kts | 71° |
| 2026-04-20 10:56 | 50.87579 | -75.44896 | 35291 ft | 526 kts | 72° |
| 2026-04-20 10:57 | 50.89870 | -75.33956 | 35292 ft | 526 kts | 72° |
| 2026-04-20 10:57 | 50.92164 | -75.22941 | 35294 ft | 526 kts | 72° |
| 2026-04-20 10:58 | 50.94446 | -75.11923 | 35298 ft | 526 kts | 72° |
| 2026-04-20 10:58 | 50.96719 | -75.00889 | 35301 ft | 526 kts | 72° |
| 2026-04-20 10:59 | 50.98968 | -74.89913 | 35303 ft | 526 kts | 72° |
| 2026-04-20 10:59 | 51.01219 | -74.78862 | 35304 ft | 526 kts | 72° |
| 2026-04-20 11:00 | 51.03464 | -74.67779 | 35306 ft | 526 kts | 72° |
| 2026-04-20 11:00 | 51.05697 | -74.56694 | 35309 ft | 526 kts | 72° |
| 2026-04-20 11:01 | 51.07919 | -74.45604 | 35312 ft | 526 kts | 72° |
| 2026-04-20 11:01 | 51.10113 | -74.34587 | 35314 ft | 526 kts | 72° |
| 2026-04-20 11:02 | 51.12477 | -74.23567 | 35304 ft | 526 kts | 66° |
| 2026-04-20 11:02 | 51.15449 | -74.12907 | 35307 ft | 526 kts | 65° |
| 2026-04-20 11:03 | 51.18505 | -74.02359 | 35309 ft | 526 kts | 65° |
| 2026-04-20 11:03 | 51.21576 | -73.91776 | 35312 ft | 526 kts | 65° |
| 2026-04-20 11:04 | 51.24631 | -73.81160 | 35314 ft | 526 kts | 65° |
| 2026-04-20 11:04 | 51.27670 | -73.70523 | 35316 ft | 526 kts | 65° |
| 2026-04-20 11:05 | 51.30698 | -73.59870 | 35319 ft | 526 kts | 65° |
| 2026-04-20 11:05 | 51.33697 | -73.49275 | 35322 ft | 526 kts | 66° |
| 2026-04-20 11:06 | 51.36704 | -73.38603 | 35325 ft | 526 kts | 66° |
| 2026-04-20 11:06 | 51.39700 | -73.27922 | 35327 ft | 526 kts | 66° |
| 2026-04-20 11:07 | 51.42691 | -73.17210 | 35330 ft | 526 kts | 66° |
| 2026-04-20 11:07 | 51.45674 | -73.06479 | 35333 ft | 526 kts | 66° |
| 2026-04-20 11:08 | 51.48628 | -72.95801 | 35336 ft | 526 kts | 66° |
| 2026-04-20 11:08 | 51.51592 | -72.85042 | 35338 ft | 526 kts | 66° |
| 2026-04-20 11:09 | 51.54545 | -72.74266 | 35342 ft | 526 kts | 66° |
| 2026-04-20 11:09 | 51.57491 | -72.63470 | 35345 ft | 526 kts | 66° |
| 2026-04-20 11:10 | 51.60407 | -72.52735 | 35347 ft | 526 kts | 66° |
| 2026-04-20 11:10 | 51.63333 | -72.41911 | 35349 ft | 526 kts | 66° |
| 2026-04-20 11:11 | 51.66245 | -72.31088 | 35351 ft | 526 kts | 66° |
| 2026-04-20 11:11 | 51.69131 | -72.20312 | 35354 ft | 526 kts | 67° |
| 2026-04-20 11:12 | 51.72025 | -72.09454 | 35358 ft | 526 kts | 67° |
| 2026-04-20 11:12 | 51.74909 | -71.98583 | 35360 ft | 526 kts | 67° |
| 2026-04-20 11:13 | 51.77764 | -71.87768 | 35363 ft | 526 kts | 67° |
| 2026-04-20 11:13 | 51.80630 | -71.76865 | 35366 ft | 526 kts | 67° |
| 2026-04-20 11:14 | 51.83003 | -71.67791 | 35368 ft | 526 kts | 67° |
| 2026-04-20 11:14 | 51.85845 | -71.56882 | 35371 ft | 526 kts | 67° |
| 2026-04-20 11:15 | 51.88665 | -71.46005 | 35372 ft | 527 kts | 67° |
| 2026-04-20 11:15 | 51.91489 | -71.35056 | 35376 ft | 527 kts | 68° |
| 2026-04-20 11:16 | 51.94304 | -71.24091 | 35378 ft | 527 kts | 68° |
| 2026-04-20 11:16 | 51.97112 | -71.13101 | 35380 ft | 527 kts | 68° |
| 2026-04-20 11:17 | 51.99906 | -71.02110 | 35382 ft | 527 kts | 68° |
| 2026-04-20 11:17 | 52.02671 | -70.91178 | 35383 ft | 527 kts | 68° |
| 2026-04-20 11:18 | 52.05445 | -70.80159 | 35385 ft | 527 kts | 68° |
| 2026-04-20 11:18 | 52.08209 | -70.69126 | 35387 ft | 527 kts | 68° |
| 2026-04-20 11:19 | 52.10961 | -70.58084 | 35389 ft | 527 kts | 68° |
| 2026-04-20 11:19 | 52.13706 | -70.47015 | 35390 ft | 527 kts | 68° |
| 2026-04-20 11:20 | 52.16424 | -70.36003 | 35393 ft | 527 kts | 68° |
| 2026-04-20 11:20 | 52.19148 | -70.24906 | 35396 ft | 527 kts | 68° |
| 2026-04-20 11:21 | 52.21863 | -70.13792 | 35400 ft | 527 kts | 68° |
| 2026-04-20 11:21 | 52.24549 | -70.02745 | 35401 ft | 527 kts | 68° |
| 2026-04-20 11:22 | 52.27241 | -69.91612 | 35405 ft | 527 kts | 69° |
| 2026-04-20 11:22 | 52.29921 | -69.80471 | 35407 ft | 527 kts | 69° |
| 2026-04-20 11:23 | 52.32597 | -69.69295 | 35411 ft | 527 kts | 69° |
| 2026-04-20 11:23 | 52.35254 | -69.58137 | 35413 ft | 527 kts | 69° |
| 2026-04-20 11:24 | 52.37886 | -69.47027 | 35415 ft | 527 kts | 69° |
| 2026-04-20 11:24 | 52.40522 | -69.35840 | 35420 ft | 527 kts | 69° |
| 2026-04-20 11:25 | 52.43152 | -69.24624 | 35423 ft | 527 kts | 69° |
| 2026-04-20 11:25 | 52.45768 | -69.13408 | 35427 ft | 527 kts | 69° |
| 2026-04-20 11:26 | 52.48374 | -69.02176 | 35429 ft | 527 kts | 69° |
| 2026-04-20 11:26 | 52.50971 | -68.90925 | 35433 ft | 527 kts | 69° |
| 2026-04-20 11:27 | 52.53559 | -68.79651 | 35436 ft | 527 kts | 69° |
| 2026-04-20 11:27 | 52.56119 | -68.68440 | 35438 ft | 527 kts | 70° |
| 2026-04-20 11:28 | 52.58685 | -68.57143 | 35440 ft | 527 kts | 70° |
| 2026-04-20 11:28 | 52.61238 | -68.45845 | 35442 ft | 527 kts | 70° |
| 2026-04-20 11:29 | 52.63781 | -68.34529 | 35445 ft | 527 kts | 70° |
| 2026-04-20 11:29 | 52.66312 | -68.23203 | 35448 ft | 527 kts | 70° |
| 2026-04-20 11:30 | 52.68822 | -68.11910 | 35452 ft | 527 kts | 70° |
| 2026-04-20 11:30 | 52.71336 | -68.00540 | 35454 ft | 527 kts | 70° |
| 2026-04-20 11:31 | 52.73838 | -67.89158 | 35456 ft | 527 kts | 70° |
| 2026-04-20 11:31 | 52.76312 | -67.77847 | 35457 ft | 527 kts | 70° |
| 2026-04-20 11:32 | 52.78793 | -67.66436 | 35460 ft | 527 kts | 70° |
| 2026-04-20 11:32 | 52.81263 | -67.55017 | 35463 ft | 527 kts | 70° |
| 2026-04-20 11:33 | 52.83719 | -67.43597 | 35465 ft | 527 kts | 70° |
| 2026-04-20 11:33 | 52.86151 | -67.32222 | 35469 ft | 527 kts | 71° |
| 2026-04-20 11:34 | 52.88591 | -67.20752 | 35472 ft | 527 kts | 71° |
| 2026-04-20 11:34 | 52.91014 | -67.09292 | 35476 ft | 527 kts | 71° |
| 2026-04-20 11:35 | 52.93412 | -66.97887 | 35480 ft | 527 kts | 71° |
| 2026-04-20 11:35 | 52.95815 | -66.86395 | 35484 ft | 527 kts | 71° |
| 2026-04-20 11:36 | 52.98476 | -66.75064 | 35484 ft | 527 kts | 66° |
| 2026-04-20 11:36 | 53.01509 | -66.63959 | 35489 ft | 527 kts | 65° |
| 2026-04-20 11:37 | 53.04499 | -66.52919 | 35492 ft | 527 kts | 66° |
| 2026-04-20 11:37 | 53.08876 | -66.36153 | 35497 ft | 527 kts | 67° |
| 2026-04-20 11:38 | 53.11758 | -66.24931 | 35499 ft | 527 kts | 67° |
| 2026-04-20 11:38 | 53.14636 | -66.13673 | 35503 ft | 527 kts | 67° |
| 2026-04-20 11:39 | 53.17482 | -66.02499 | 35505 ft | 527 kts | 67° |
| 2026-04-20 11:39 | 53.20345 | -65.91201 | 35508 ft | 527 kts | 67° |
| 2026-04-20 11:40 | 53.23191 | -65.79919 | 35511 ft | 527 kts | 67° |
| 2026-04-20 11:40 | 53.26007 | -65.68695 | 35516 ft | 527 kts | 67° |
| 2026-04-20 11:41 | 53.28832 | -65.57380 | 35520 ft | 527 kts | 68° |
| 2026-04-20 11:41 | 53.31643 | -65.46060 | 35523 ft | 527 kts | 68° |
| 2026-04-20 11:42 | 53.34448 | -65.34710 | 35526 ft | 527 kts | 68° |
| 2026-04-20 11:42 | 53.37221 | -65.23428 | 35529 ft | 527 kts | 68° |
| 2026-04-20 11:43 | 53.40001 | -65.12059 | 35534 ft | 527 kts | 68° |
| 2026-04-20 11:43 | 53.42774 | -65.00662 | 35537 ft | 527 kts | 68° |
| 2026-04-20 11:44 | 53.45536 | -64.89247 | 35540 ft | 527 kts | 68° |
| 2026-04-20 11:44 | 53.48269 | -64.77898 | 35545 ft | 527 kts | 68° |
| 2026-04-20 11:45 | 53.51007 | -64.66464 | 35549 ft | 527 kts | 68° |
| 2026-04-20 11:45 | 53.53736 | -64.55010 | 35552 ft | 527 kts | 68° |
| 2026-04-20 11:46 | 53.56439 | -64.43604 | 35554 ft | 527 kts | 68° |
| 2026-04-20 11:46 | 53.59142 | -64.32134 | 35558 ft | 527 kts | 68° |
| 2026-04-20 11:47 | 53.61835 | -64.20648 | 35565 ft | 527 kts | 69° |
| 2026-04-20 11:47 | 53.64521 | -64.09132 | 35567 ft | 527 kts | 69° |
| 2026-04-20 11:48 | 53.67194 | -63.97607 | 35569 ft | 527 kts | 69° |
| 2026-04-20 11:48 | 53.69844 | -63.86121 | 35571 ft | 527 kts | 69° |
| 2026-04-20 11:49 | 53.72498 | -63.74555 | 35574 ft | 527 kts | 69° |
| 2026-04-20 11:49 | 53.75118 | -63.63070 | 35578 ft | 527 kts | 69° |
| 2026-04-20 11:50 | 53.77754 | -63.51458 | 35581 ft | 527 kts | 69° |
| 2026-04-20 11:50 | 53.80370 | -63.39866 | 35585 ft | 527 kts | 69° |
| 2026-04-20 11:51 | 53.82976 | -63.28258 | 35587 ft | 527 kts | 69° |
| 2026-04-20 11:51 | 53.85554 | -63.16709 | 35589 ft | 527 kts | 69° |
| 2026-04-20 11:52 | 53.88139 | -63.05064 | 35592 ft | 527 kts | 69° |
| 2026-04-20 11:52 | 53.90713 | -62.93403 | 35594 ft | 527 kts | 70° |
| 2026-04-20 11:53 | 53.93264 | -62.81780 | 35597 ft | 527 kts | 70° |
| 2026-04-20 11:53 | 53.95817 | -62.70080 | 35599 ft | 527 kts | 70° |
| 2026-04-20 11:54 | 53.98357 | -62.58380 | 35603 ft | 527 kts | 70° |
| 2026-04-20 11:54 | 54.00887 | -62.46657 | 35605 ft | 527 kts | 70° |
| 2026-04-20 11:55 | 54.03387 | -62.35003 | 35607 ft | 527 kts | 70° |
| 2026-04-20 11:55 | 54.05899 | -62.23229 | 35610 ft | 527 kts | 70° |
| 2026-04-20 11:56 | 54.08380 | -62.11529 | 35613 ft | 527 kts | 70° |
| 2026-04-20 11:56 | 54.10863 | -61.99755 | 35617 ft | 527 kts | 70° |
| 2026-04-20 11:57 | 54.13337 | -61.87956 | 35621 ft | 527 kts | 70° |
| 2026-04-20 11:57 | 54.15783 | -61.76221 | 35625 ft | 527 kts | 70° |
| 2026-04-20 11:58 | 54.18230 | -61.64411 | 35626 ft | 528 kts | 71° |
| 2026-04-20 11:58 | 54.20671 | -61.52561 | 35630 ft | 528 kts | 71° |
| 2026-04-20 11:59 | 54.23084 | -61.40774 | 35634 ft | 528 kts | 71° |
| 2026-04-20 11:59 | 54.25496 | -61.28928 | 35638 ft | 528 kts | 71° |
| 2026-04-20 12:00 | 54.27899 | -61.17049 | 35641 ft | 528 kts | 71° |
| 2026-04-20 12:00 | 54.30288 | -61.05166 | 35643 ft | 528 kts | 71° |
| 2026-04-20 12:01 | 54.32667 | -60.93265 | 35646 ft | 528 kts | 71° |
| 2026-04-20 12:01 | 54.35020 | -60.81423 | 35648 ft | 528 kts | 71° |
| 2026-04-20 12:02 | 54.37378 | -60.69484 | 35652 ft | 528 kts | 71° |
| 2026-04-20 12:02 | 54.39718 | -60.57559 | 35653 ft | 528 kts | 71° |
| 2026-04-20 12:03 | 54.42050 | -60.45602 | 35656 ft | 528 kts | 71° |
| 2026-04-20 12:03 | 54.44359 | -60.33691 | 35657 ft | 528 kts | 72° |
| 2026-04-20 12:04 | 54.46671 | -60.21691 | 35660 ft | 528 kts | 72° |
| 2026-04-20 12:04 | 54.48967 | -60.09696 | 35664 ft | 528 kts | 72° |
| 2026-04-20 12:05 | 54.51235 | -59.97773 | 35665 ft | 528 kts | 72° |
| 2026-04-20 12:05 | 54.53143 | -59.87685 | 35666 ft | 528 kts | 72° |
| 2026-04-20 12:06 | 54.55391 | -59.75728 | 35667 ft | 528 kts | 72° |
| 2026-04-20 12:06 | 54.57640 | -59.63692 | 35669 ft | 528 kts | 72° |
| 2026-04-20 12:07 | 54.59879 | -59.51633 | 35672 ft | 528 kts | 72° |
| 2026-04-20 12:07 | 54.62109 | -59.39543 | 35676 ft | 528 kts | 72° |
| 2026-04-20 12:08 | 54.64312 | -59.27518 | 35678 ft | 528 kts | 72° |
| 2026-04-20 12:08 | 54.66515 | -59.15417 | 35682 ft | 528 kts | 72° |
| 2026-04-20 12:09 | 54.68708 | -59.03291 | 35685 ft | 528 kts | 73° |
| 2026-04-20 12:09 | 54.70872 | -58.91247 | 35689 ft | 528 kts | 73° |
| 2026-04-20 12:10 | 54.73042 | -58.79089 | 35692 ft | 528 kts | 73° |
| 2026-04-20 12:10 | 54.75198 | -58.66927 | 35694 ft | 528 kts | 73° |
| 2026-04-20 12:11 | 54.77340 | -58.54765 | 35697 ft | 528 kts | 73° |
| 2026-04-20 12:11 | 54.79459 | -58.42650 | 35698 ft | 528 kts | 73° |
| 2026-04-20 12:12 | 54.81579 | -58.30452 | 35699 ft | 528 kts | 73° |
| 2026-04-20 12:12 | 54.83685 | -58.18243 | 35701 ft | 528 kts | 73° |
| 2026-04-20 12:13 | 54.85776 | -58.06040 | 35704 ft | 528 kts | 73° |
| 2026-04-20 12:13 | 54.87848 | -57.93871 | 35707 ft | 528 kts | 73° |
| 2026-04-20 12:14 | 54.89919 | -57.81615 | 35707 ft | 528 kts | 74° |
| 2026-04-20 12:14 | 54.91977 | -57.69357 | 35708 ft | 528 kts | 74° |
| 2026-04-20 12:15 | 54.94011 | -57.57149 | 35709 ft | 528 kts | 74° |
| 2026-04-20 12:15 | 54.96045 | -57.44859 | 35710 ft | 528 kts | 74° |
| 2026-04-20 12:16 | 54.98069 | -57.32541 | 35711 ft | 528 kts | 74° |
| 2026-04-20 12:16 | 55.00067 | -57.20293 | 35711 ft | 528 kts | 74° |
| 2026-04-20 12:17 | 55.02062 | -57.07980 | 35711 ft | 528 kts | 74° |
| 2026-04-20 12:17 | 55.04713 | -56.96066 | 35696 ft | 528 kts | 63° |
| 2026-04-20 12:18 | 55.08210 | -56.84794 | 35696 ft | 528 kts | 60° |
| 2026-04-20 12:18 | 55.11834 | -56.73616 | 35697 ft | 528 kts | 60° |
| 2026-04-20 12:19 | 55.15457 | -56.62428 | 35699 ft | 528 kts | 60° |
| 2026-04-20 12:19 | 55.19024 | -56.51293 | 35701 ft | 528 kts | 61° |
| 2026-04-20 12:20 | 55.22598 | -56.40048 | 35702 ft | 528 kts | 61° |
| 2026-04-20 12:20 | 55.26162 | -56.28777 | 35704 ft | 528 kts | 61° |
| 2026-04-20 12:21 | 55.29714 | -56.17491 | 35706 ft | 528 kts | 61° |
| 2026-04-20 12:21 | 55.33260 | -56.06173 | 35707 ft | 528 kts | 61° |
| 2026-04-20 12:22 | 55.36772 | -55.94911 | 35708 ft | 528 kts | 61° |
| 2026-04-20 12:22 | 55.40295 | -55.83559 | 35709 ft | 528 kts | 61° |
| 2026-04-20 12:23 | 55.43815 | -55.72165 | 35710 ft | 528 kts | 62° |
| 2026-04-20 12:23 | 55.47323 | -55.60751 | 35712 ft | 528 kts | 62° |
| 2026-04-20 12:24 | 55.50814 | -55.49341 | 35713 ft | 528 kts | 62° |
| 2026-04-20 12:24 | 55.54273 | -55.37978 | 35714 ft | 529 kts | 62° |
| 2026-04-20 12:25 | 55.57747 | -55.26514 | 35716 ft | 529 kts | 62° |
| 2026-04-20 12:25 | 55.61210 | -55.15030 | 35716 ft | 529 kts | 62° |
| 2026-04-20 12:26 | 55.64642 | -55.03591 | 35718 ft | 529 kts | 62° |
| 2026-04-20 12:26 | 55.68082 | -54.92071 | 35719 ft | 529 kts | 62° |
| 2026-04-20 12:27 | 55.71511 | -54.80531 | 35721 ft | 529 kts | 62° |
| 2026-04-20 12:27 | 55.74933 | -54.68961 | 35722 ft | 529 kts | 62° |
| 2026-04-20 12:28 | 55.78338 | -54.57386 | 35723 ft | 529 kts | 62° |
| 2026-04-20 12:28 | 55.81716 | -54.45850 | 35724 ft | 529 kts | 63° |
| 2026-04-20 12:29 | 55.85099 | -54.34237 | 35725 ft | 529 kts | 63° |
| 2026-04-20 12:29 | 55.88480 | -54.22574 | 35727 ft | 529 kts | 63° |
| 2026-04-20 12:30 | 55.91847 | -54.10902 | 35728 ft | 529 kts | 63° |
| 2026-04-20 12:30 | 55.95181 | -53.99285 | 35729 ft | 529 kts | 63° |
| 2026-04-20 12:31 | 55.98526 | -53.87573 | 35730 ft | 529 kts | 63° |
| 2026-04-20 12:31 | 56.01856 | -53.75852 | 35732 ft | 529 kts | 63° |
| 2026-04-20 12:32 | 56.05181 | -53.64090 | 35733 ft | 529 kts | 63° |
| 2026-04-20 12:32 | 56.08489 | -53.52326 | 35734 ft | 529 kts | 63° |
| 2026-04-20 12:33 | 56.11768 | -53.40609 | 35735 ft | 529 kts | 63° |
| 2026-04-20 12:33 | 56.15055 | -53.28803 | 35736 ft | 529 kts | 64° |
| 2026-04-20 12:34 | 56.18331 | -53.16974 | 35737 ft | 529 kts | 64° |
| 2026-04-20 12:34 | 56.21593 | -53.05134 | 35738 ft | 529 kts | 64° |
| 2026-04-20 12:35 | 56.24849 | -52.93256 | 35739 ft | 529 kts | 64° |
| 2026-04-20 12:35 | 56.28072 | -52.81440 | 35740 ft | 529 kts | 64° |
| 2026-04-20 12:36 | 56.31304 | -52.69525 | 35742 ft | 529 kts | 64° |
| 2026-04-20 12:36 | 56.34524 | -52.57593 | 35743 ft | 529 kts | 64° |
| 2026-04-20 12:37 | 56.37736 | -52.45629 | 35743 ft | 529 kts | 64° |
| 2026-04-20 12:37 | 56.40913 | -52.33732 | 35745 ft | 529 kts | 64° |
| 2026-04-20 12:38 | 56.44095 | -52.21753 | 35746 ft | 529 kts | 64° |
| 2026-04-20 12:38 | 56.47271 | -52.09731 | 35747 ft | 529 kts | 64° |
| 2026-04-20 12:39 | 56.52019 | -51.91643 | 35749 ft | 529 kts | 65° |
| 2026-04-20 12:40 | 56.55146 | -51.79647 | 35750 ft | 529 kts | 65° |
| 2026-04-20 12:40 | 56.58284 | -51.67546 | 35751 ft | 529 kts | 65° |
| 2026-04-20 12:41 | 56.61406 | -51.55443 | 35752 ft | 529 kts | 65° |
| 2026-04-20 12:41 | 56.64500 | -51.43383 | 35754 ft | 529 kts | 65° |
| 2026-04-20 12:42 | 56.67603 | -51.31219 | 35755 ft | 529 kts | 65° |
| 2026-04-20 12:42 | 56.70691 | -51.19050 | 35756 ft | 529 kts | 65° |
| 2026-04-20 12:43 | 56.73743 | -51.06955 | 35757 ft | 529 kts | 65° |
| 2026-04-20 12:43 | 56.76807 | -50.94747 | 35758 ft | 529 kts | 65° |
| 2026-04-20 12:44 | 56.79865 | -50.82498 | 35759 ft | 529 kts | 65° |
| 2026-04-20 12:44 | 56.82906 | -50.70245 | 35759 ft | 529 kts | 66° |
| 2026-04-20 12:45 | 56.85935 | -50.57973 | 35760 ft | 529 kts | 66° |
| 2026-04-20 12:45 | 56.88933 | -50.45759 | 35761 ft | 529 kts | 66° |
| 2026-04-20 12:46 | 56.91938 | -50.33448 | 35761 ft | 529 kts | 66° |
| 2026-04-20 12:46 | 56.94932 | -50.21113 | 35762 ft | 529 kts | 66° |
| 2026-04-20 12:47 | 56.97910 | -50.08773 | 35763 ft | 529 kts | 66° |
| 2026-04-20 12:47 | 57.00503 | -49.96150 | 35751 ft | 529 kts | 74° |
| 2026-04-20 12:48 | 57.02446 | -49.83208 | 35751 ft | 529 kts | 75° |
| 2026-04-20 12:48 | 57.04284 | -49.70103 | 35753 ft | 529 kts | 76° |
| 2026-04-20 12:49 | 57.06100 | -49.56984 | 35754 ft | 529 kts | 76° |
| 2026-04-20 12:49 | 57.07912 | -49.43871 | 35756 ft | 529 kts | 76° |
| 2026-04-20 12:50 | 57.09707 | -49.30816 | 35757 ft | 529 kts | 76° |
| 2026-04-20 12:50 | 57.11504 | -49.17652 | 35758 ft | 529 kts | 76° |
| 2026-04-20 12:51 | 57.13287 | -49.04471 | 35759 ft | 529 kts | 76° |
| 2026-04-20 12:51 | 57.15043 | -48.91379 | 35761 ft | 529 kts | 76° |
| 2026-04-20 12:52 | 57.16795 | -48.78197 | 35762 ft | 529 kts | 76° |
| 2026-04-20 12:52 | 57.18534 | -48.64992 | 35763 ft | 529 kts | 76° |
| 2026-04-20 12:53 | 57.20260 | -48.51774 | 35764 ft | 529 kts | 77° |
| 2026-04-20 12:53 | 57.21971 | -48.38549 | 35764 ft | 529 kts | 77° |
| 2026-04-20 12:54 | 57.23667 | -48.25321 | 35765 ft | 529 kts | 77° |
| 2026-04-20 12:54 | 57.25340 | -48.12147 | 35766 ft | 530 kts | 77° |
| 2026-04-20 12:55 | 57.26731 | -48.01107 | 35767 ft | 530 kts | 77° |
| 2026-04-20 12:55 | 57.28657 | -47.85679 | 35768 ft | 530 kts | 77° |
| 2026-04-20 12:56 | 57.30298 | -47.72394 | 35769 ft | 530 kts | 77° |
| 2026-04-20 12:56 | 57.31654 | -47.61330 | 35770 ft | 530 kts | 77° |
| 2026-04-20 12:57 | 57.33272 | -47.47999 | 35771 ft | 530 kts | 77° |
| 2026-04-20 12:57 | 57.34866 | -47.34749 | 35772 ft | 530 kts | 77° |
| 2026-04-20 12:58 | 57.36454 | -47.21416 | 35773 ft | 530 kts | 78° |
| 2026-04-20 12:58 | 57.38028 | -47.08066 | 35774 ft | 530 kts | 78° |
| 2026-04-20 12:59 | 57.39591 | -46.94687 | 35775 ft | 530 kts | 78° |
| 2026-04-20 12:59 | 57.41136 | -46.81323 | 35776 ft | 530 kts | 78° |
| 2026-04-20 13:00 | 57.42658 | -46.68025 | 35777 ft | 530 kts | 78° |
| 2026-04-20 13:00 | 57.44176 | -46.54637 | 35778 ft | 530 kts | 78° |
| 2026-04-20 13:01 | 57.45677 | -46.41248 | 35778 ft | 530 kts | 78° |
| 2026-04-20 13:01 | 57.47168 | -46.27826 | 35779 ft | 530 kts | 78° |
| 2026-04-20 13:02 | 57.48633 | -46.14485 | 35780 ft | 530 kts | 78° |
| 2026-04-20 13:02 | 57.50095 | -46.01046 | 35782 ft | 530 kts | 79° |
| 2026-04-20 13:03 | 57.51542 | -45.87590 | 35783 ft | 530 kts | 79° |
| 2026-04-20 13:03 | 57.52976 | -45.74113 | 35784 ft | 530 kts | 79° |
| 2026-04-20 13:04 | 57.54388 | -45.60702 | 35785 ft | 530 kts | 79° |
| 2026-04-20 13:04 | 57.55791 | -45.47233 | 35786 ft | 530 kts | 79° |
| 2026-04-20 13:05 | 57.57173 | -45.33817 | 35787 ft | 530 kts | 79° |
| 2026-04-20 13:05 | 57.58549 | -45.20306 | 35788 ft | 530 kts | 79° |
| 2026-04-20 13:06 | 57.59910 | -45.06790 | 35788 ft | 530 kts | 79° |
| 2026-04-20 13:06 | 57.61254 | -44.93287 | 35789 ft | 530 kts | 79° |
| 2026-04-20 13:07 | 57.62588 | -44.79741 | 35790 ft | 530 kts | 80° |
| 2026-04-20 13:07 | 57.63896 | -44.66292 | 35791 ft | 530 kts | 80° |
| 2026-04-20 13:08 | 57.65200 | -44.52737 | 35792 ft | 530 kts | 80° |
| 2026-04-20 13:08 | 57.66487 | -44.39185 | 35793 ft | 530 kts | 80° |
| 2026-04-20 13:09 | 57.67763 | -44.25594 | 35793 ft | 530 kts | 80° |
| 2026-04-20 13:09 | 57.69023 | -44.12010 | 35794 ft | 530 kts | 80° |
| 2026-04-20 13:10 | 57.70263 | -43.98481 | 35795 ft | 530 kts | 81° |
| 2026-04-20 13:10 | 57.71495 | -43.84863 | 35796 ft | 530 kts | 81° |
| 2026-04-20 13:11 | 57.72711 | -43.71250 | 35797 ft | 530 kts | 81° |
| 2026-04-20 13:11 | 57.73916 | -43.57595 | 35798 ft | 530 kts | 81° |
| 2026-04-20 13:12 | 57.75096 | -43.44038 | 35798 ft | 530 kts | 81° |
| 2026-04-20 13:12 | 57.76269 | -43.30391 | 35799 ft | 530 kts | 81° |
| 2026-04-20 13:13 | 57.77428 | -43.16731 | 35800 ft | 530 kts | 81° |
| 2026-04-20 13:13 | 57.78573 | -43.03052 | 35801 ft | 530 kts | 81° |
| 2026-04-20 13:14 | 57.79695 | -42.89461 | 35802 ft | 530 kts | 81° |
| 2026-04-20 13:14 | 57.80808 | -42.75801 | 35803 ft | 530 kts | 81° |
| 2026-04-20 13:15 | 57.81908 | -42.62098 | 35804 ft | 530 kts | 82° |
| 2026-04-20 13:15 | 57.82988 | -42.48463 | 35805 ft | 530 kts | 82° |
| 2026-04-20 13:16 | 57.84058 | -42.34765 | 35806 ft | 530 kts | 82° |
| 2026-04-20 13:16 | 57.85113 | -42.21050 | 35807 ft | 530 kts | 82° |
| 2026-04-20 13:17 | 57.86154 | -42.07318 | 35808 ft | 530 kts | 82° |
| 2026-04-20 13:17 | 57.87173 | -41.93682 | 35808 ft | 530 kts | 82° |
| 2026-04-20 13:18 | 57.88183 | -41.79954 | 35809 ft | 530 kts | 82° |
| 2026-04-20 13:18 | 57.89180 | -41.66196 | 35810 ft | 530 kts | 82° |
| 2026-04-20 13:19 | 57.90162 | -41.52435 | 35810 ft | 530 kts | 82° |
| 2026-04-20 13:19 | 57.91128 | -41.38689 | 35811 ft | 530 kts | 83° |
| 2026-04-20 13:20 | 57.92074 | -41.24994 | 35812 ft | 530 kts | 83° |
| 2026-04-20 13:20 | 57.93011 | -41.11215 | 35813 ft | 530 kts | 83° |
| 2026-04-20 13:21 | 57.93934 | -40.97417 | 35814 ft | 530 kts | 83° |
| 2026-04-20 13:21 | 57.94842 | -40.83611 | 35815 ft | 530 kts | 83° |
| 2026-04-20 13:22 | 57.95728 | -40.69916 | 35815 ft | 530 kts | 83° |
| 2026-04-20 13:22 | 57.96605 | -40.56107 | 35816 ft | 530 kts | 83° |
| 2026-04-20 13:23 | 57.97468 | -40.42291 | 35817 ft | 530 kts | 83° |
| 2026-04-20 13:23 | 57.98310 | -40.28548 | 35817 ft | 530 kts | 83° |
| 2026-04-20 13:24 | 57.99143 | -40.14717 | 35818 ft | 530 kts | 84° |
| 2026-04-20 13:24 | 57.99962 | -40.00869 | 35819 ft | 530 kts | 84° |
| 2026-04-20 13:25 | 58.00627 | -39.87092 | 35818 ft | 530 kts | 86° |
| 2026-04-20 13:25 | 58.01096 | -39.73198 | 35819 ft | 530 kts | 86° |
| 2026-04-20 13:26 | 58.01557 | -39.59297 | 35820 ft | 530 kts | 86° |
| 2026-04-20 13:26 | 58.02034 | -39.45472 | 35821 ft | 530 kts | 86° |
| 2026-04-20 13:27 | 58.02512 | -39.31591 | 35822 ft | 530 kts | 86° |
| 2026-04-20 13:27 | 58.02979 | -39.17669 | 35824 ft | 530 kts | 86° |
| 2026-04-20 13:28 | 58.03427 | -39.03823 | 35825 ft | 530 kts | 86° |
| 2026-04-20 13:28 | 58.03861 | -38.89903 | 35826 ft | 531 kts | 87° |
| 2026-04-20 13:29 | 58.04279 | -38.75975 | 35827 ft | 531 kts | 87° |
| 2026-04-20 13:29 | 58.04680 | -38.62137 | 35828 ft | 531 kts | 87° |
| 2026-04-20 13:30 | 58.05068 | -38.48211 | 35828 ft | 531 kts | 87° |
| 2026-04-20 13:30 | 58.05441 | -38.34279 | 35829 ft | 531 kts | 87° |
| 2026-04-20 13:31 | 58.05799 | -38.20336 | 35830 ft | 531 kts | 87° |
| 2026-04-20 13:31 | 58.06139 | -38.06494 | 35832 ft | 531 kts | 88° |
| 2026-04-20 13:32 | 58.06467 | -37.92557 | 35833 ft | 531 kts | 88° |
| 2026-04-20 13:32 | 58.06779 | -37.78596 | 35834 ft | 531 kts | 88° |
| 2026-04-20 13:33 | 58.07074 | -37.64737 | 35835 ft | 531 kts | 88° |
| 2026-04-20 13:33 | 58.07357 | -37.50770 | 35836 ft | 531 kts | 88° |
| 2026-04-20 13:34 | 58.07623 | -37.36825 | 35837 ft | 531 kts | 88° |
| 2026-04-20 13:34 | 58.07874 | -37.22871 | 35838 ft | 531 kts | 88° |
| 2026-04-20 13:35 | 58.08109 | -37.09021 | 35840 ft | 531 kts | 88° |
| 2026-04-20 13:35 | 58.08330 | -36.95051 | 35840 ft | 531 kts | 88° |
| 2026-04-20 13:36 | 58.08535 | -36.81091 | 35842 ft | 531 kts | 89° |
| 2026-04-20 13:36 | 58.08726 | -36.67127 | 35843 ft | 531 kts | 89° |
| 2026-04-20 13:37 | 58.08900 | -36.53266 | 35844 ft | 531 kts | 89° |
| 2026-04-20 13:37 | 58.09060 | -36.39276 | 35845 ft | 531 kts | 89° |
| 2026-04-20 13:38 | 58.09205 | -36.25325 | 35846 ft | 531 kts | 89° |
| 2026-04-20 13:38 | 58.09334 | -36.11370 | 35847 ft | 531 kts | 89° |
| 2026-04-20 13:39 | 58.09448 | -35.97395 | 35849 ft | 531 kts | 89° |
| 2026-04-20 13:39 | 58.09547 | -35.83486 | 35849 ft | 531 kts | 89° |
| 2026-04-20 13:40 | 58.09630 | -35.69513 | 35850 ft | 531 kts | 89° |
| 2026-04-20 13:40 | 58.09699 | -35.55540 | 35851 ft | 531 kts | 90° |
| 2026-04-20 13:41 | 58.09752 | -35.41570 | 35852 ft | 531 kts | 90° |
| 2026-04-20 13:41 | 58.09790 | -35.27602 | 35853 ft | 531 kts | 90° |
| 2026-04-20 13:42 | 58.09812 | -35.13723 | 35855 ft | 531 kts | 90° |
| 2026-04-20 13:42 | 58.09817 | -34.92757 | 35857 ft | 531 kts | 90° |
| 2026-04-20 13:43 | 58.09802 | -34.78854 | 35858 ft | 531 kts | 90° |
| 2026-04-20 13:43 | 58.09771 | -34.64840 | 35859 ft | 531 kts | 90° |
| 2026-04-20 13:44 | 58.09733 | -34.53231 | 35860 ft | 531 kts | 90° |
| 2026-04-20 13:44 | 58.09663 | -34.36955 | 35861 ft | 531 kts | 91° |
| 2026-04-20 13:45 | 58.09587 | -34.22973 | 35862 ft | 531 kts | 91° |
| 2026-04-20 13:45 | 58.09511 | -34.11355 | 35863 ft | 531 kts | 91° |
| 2026-04-20 13:46 | 58.09406 | -33.97347 | 35864 ft | 531 kts | 91° |
| 2026-04-20 13:46 | 58.09286 | -33.83380 | 35865 ft | 531 kts | 91° |
| 2026-04-20 13:47 | 58.09151 | -33.69409 | 35866 ft | 531 kts | 91° |
| 2026-04-20 13:47 | 58.09002 | -33.55530 | 35867 ft | 531 kts | 91° |
| 2026-04-20 13:48 | 58.08836 | -33.41540 | 35869 ft | 531 kts | 91° |
| 2026-04-20 13:48 | 58.08655 | -33.27576 | 35869 ft | 531 kts | 91° |
| 2026-04-20 13:49 | 58.08458 | -33.13603 | 35871 ft | 531 kts | 92° |
| 2026-04-20 13:49 | 58.08246 | -32.99641 | 35871 ft | 531 kts | 92° |
| 2026-04-20 13:50 | 58.08019 | -32.85669 | 35873 ft | 531 kts | 92° |
| 2026-04-20 13:50 | 58.07777 | -32.71714 | 35874 ft | 531 kts | 92° |
| 2026-04-20 13:51 | 58.07522 | -32.57851 | 35874 ft | 531 kts | 92° |
| 2026-04-20 13:51 | 58.07249 | -32.43888 | 35875 ft | 531 kts | 92° |
| 2026-04-20 13:52 | 58.06961 | -32.29920 | 35876 ft | 532 kts | 92° |
| 2026-04-20 13:52 | 58.06658 | -32.15964 | 35877 ft | 532 kts | 92° |
| 2026-04-20 13:53 | 58.06341 | -32.02100 | 35878 ft | 532 kts | 92° |
| 2026-04-20 13:53 | 58.06008 | -31.88140 | 35879 ft | 532 kts | 93° |
| 2026-04-20 13:54 | 58.05658 | -31.74180 | 35881 ft | 532 kts | 93° |
| 2026-04-20 13:54 | 58.05293 | -31.60201 | 35881 ft | 532 kts | 93° |
| 2026-04-20 13:55 | 58.04914 | -31.46257 | 35883 ft | 532 kts | 93° |
| 2026-04-20 13:55 | 58.04522 | -31.32391 | 35884 ft | 532 kts | 93° |
| 2026-04-20 13:56 | 58.04111 | -31.18435 | 35885 ft | 532 kts | 93° |
| 2026-04-20 13:56 | 58.03686 | -31.04496 | 35886 ft | 532 kts | 94° |
| 2026-04-20 13:57 | 58.03245 | -30.90553 | 35888 ft | 532 kts | 94° |
| 2026-04-20 13:57 | 58.02789 | -30.76607 | 35888 ft | 532 kts | 94° |
| 2026-04-20 13:58 | 58.02321 | -30.62749 | 35889 ft | 532 kts | 94° |
| 2026-04-20 13:58 | 58.01834 | -30.48813 | 35890 ft | 532 kts | 94° |
| 2026-04-20 13:59 | 58.01333 | -30.34884 | 35891 ft | 532 kts | 94° |
| 2026-04-20 13:59 | 58.00819 | -30.21042 | 35892 ft | 532 kts | 94° |
| 2026-04-20 14:00 | 58.00287 | -30.07113 | 35893 ft | 532 kts | 94° |
| 2026-04-20 14:00 | 57.99705 | -29.93167 | 35893 ft | 532 kts | 96° |
| 2026-04-20 14:01 | 57.98874 | -29.79378 | 35894 ft | 532 kts | 97° |
| 2026-04-20 14:01 | 57.97973 | -29.65536 | 35895 ft | 532 kts | 97° |
| 2026-04-20 14:02 | 57.97090 | -29.51702 | 35896 ft | 532 kts | 97° |
| 2026-04-20 14:02 | 57.96214 | -29.37840 | 35897 ft | 532 kts | 97° |
| 2026-04-20 14:03 | 57.95335 | -29.24076 | 35897 ft | 532 kts | 97° |
| 2026-04-20 14:03 | 57.94440 | -29.10297 | 35899 ft | 532 kts | 97° |
| 2026-04-20 14:04 | 57.93525 | -28.96482 | 35900 ft | 532 kts | 97° |
| 2026-04-20 14:04 | 57.92592 | -28.82638 | 35901 ft | 532 kts | 97° |
| 2026-04-20 14:05 | 57.91644 | -28.68808 | 35902 ft | 532 kts | 97° |
| 2026-04-20 14:05 | 57.90683 | -28.55002 | 35903 ft | 532 kts | 98° |
| 2026-04-20 14:06 | 57.89710 | -28.41248 | 35904 ft | 532 kts | 98° |
| 2026-04-20 14:06 | 57.88718 | -28.27448 | 35905 ft | 532 kts | 98° |
| 2026-04-20 14:07 | 57.87713 | -28.13687 | 35906 ft | 532 kts | 98° |
| 2026-04-20 14:07 | 57.86697 | -27.99976 | 35907 ft | 532 kts | 98° |
| 2026-04-20 14:08 | 57.85661 | -27.86200 | 35908 ft | 532 kts | 98° |
| 2026-04-20 14:08 | 57.84610 | -27.72440 | 35909 ft | 532 kts | 98° |
| 2026-04-20 14:09 | 57.83551 | -27.58779 | 35909 ft | 532 kts | 98° |
| 2026-04-20 14:09 | 57.82469 | -27.45005 | 35910 ft | 532 kts | 98° |
| 2026-04-20 14:10 | 57.81374 | -27.31282 | 35911 ft | 532 kts | 99° |
| 2026-04-20 14:10 | 57.80262 | -27.17532 | 35913 ft | 532 kts | 99° |
| 2026-04-20 14:11 | 57.79146 | -27.03914 | 35914 ft | 532 kts | 99° |
| 2026-04-20 14:11 | 57.78007 | -26.90215 | 35915 ft | 532 kts | 99° |
| 2026-04-20 14:12 | 57.76850 | -26.76488 | 35916 ft | 532 kts | 99° |
| 2026-04-20 14:12 | 57.75678 | -26.62765 | 35917 ft | 532 kts | 99° |
| 2026-04-20 14:13 | 57.74501 | -26.49160 | 35917 ft | 532 kts | 99° |
| 2026-04-20 14:13 | 57.73302 | -26.35476 | 35918 ft | 532 kts | 99° |
| 2026-04-20 14:14 | 57.72085 | -26.21771 | 35919 ft | 532 kts | 99° |
| 2026-04-20 14:14 | 57.70863 | -26.08188 | 35920 ft | 532 kts | 99° |
| 2026-04-20 14:15 | 57.69618 | -25.94519 | 35920 ft | 532 kts | 100° |
| 2026-04-20 14:15 | 57.68360 | -25.80870 | 35921 ft | 532 kts | 100° |
| 2026-04-20 14:16 | 57.67088 | -25.67242 | 35922 ft | 532 kts | 100° |
| 2026-04-20 14:16 | 57.65805 | -25.53674 | 35922 ft | 532 kts | 100° |
| 2026-04-20 14:17 | 57.64503 | -25.40056 | 35922 ft | 532 kts | 100° |
| 2026-04-20 14:17 | 57.63186 | -25.26444 | 35923 ft | 532 kts | 100° |
| 2026-04-20 14:18 | 57.61861 | -25.12917 | 35923 ft | 532 kts | 101° |
| 2026-04-20 14:18 | 57.60517 | -24.99341 | 35924 ft | 532 kts | 101° |
| 2026-04-20 14:19 | 57.59156 | -24.85764 | 35925 ft | 532 kts | 101° |
| 2026-04-20 14:19 | 57.57781 | -24.72196 | 35926 ft | 532 kts | 101° |
| 2026-04-20 14:20 | 57.56401 | -24.58725 | 35926 ft | 532 kts | 101° |
| 2026-04-20 14:20 | 57.54994 | -24.45154 | 35927 ft | 532 kts | 101° |
| 2026-04-20 14:21 | 57.53573 | -24.31593 | 35927 ft | 532 kts | 101° |
| 2026-04-20 14:21 | 57.52149 | -24.18153 | 35928 ft | 532 kts | 101° |
| 2026-04-20 14:22 | 57.50702 | -24.04637 | 35929 ft | 532 kts | 101° |
| 2026-04-20 14:22 | 57.49239 | -23.91121 | 35930 ft | 532 kts | 102° |
| 2026-04-20 14:23 | 57.47762 | -23.77622 | 35930 ft | 532 kts | 102° |
| 2026-04-20 14:23 | 57.46282 | -23.64239 | 35931 ft | 532 kts | 102° |
| 2026-04-20 14:24 | 57.44777 | -23.50764 | 35931 ft | 532 kts | 102° |
| 2026-04-20 14:24 | 57.43257 | -23.37301 | 35932 ft | 532 kts | 102° |
| 2026-04-20 14:25 | 57.41722 | -23.23834 | 35933 ft | 532 kts | 102° |
| 2026-04-20 14:25 | 57.40176 | -23.10411 | 35934 ft | 532 kts | 102° |
| 2026-04-20 14:26 | 57.38622 | -22.97062 | 35935 ft | 532 kts | 102° |
| 2026-04-20 14:26 | 57.37047 | -22.83653 | 35936 ft | 532 kts | 102° |
| 2026-04-20 14:27 | 57.35453 | -22.70228 | 35937 ft | 532 kts | 103° |
| 2026-04-20 14:27 | 57.33848 | -22.56833 | 35938 ft | 532 kts | 103° |
| 2026-04-20 14:28 | 57.32237 | -22.43520 | 35939 ft | 533 kts | 103° |
| 2026-04-20 14:28 | 57.30602 | -22.30135 | 35940 ft | 533 kts | 103° |
| 2026-04-20 14:29 | 57.28953 | -22.16765 | 35942 ft | 533 kts | 103° |
| 2026-04-20 14:29 | 57.27291 | -22.03416 | 35943 ft | 533 kts | 103° |
| 2026-04-20 14:30 | 57.25626 | -21.90170 | 35944 ft | 533 kts | 103° |
| 2026-04-20 14:30 | 57.23934 | -21.76829 | 35945 ft | 533 kts | 103° |
| 2026-04-20 14:31 | 57.22230 | -21.63523 | 35946 ft | 533 kts | 103° |
| 2026-04-20 14:31 | 57.20518 | -21.50269 | 35947 ft | 533 kts | 103° |
| 2026-04-20 14:32 | 57.18784 | -21.36973 | 35947 ft | 533 kts | 104° |
| 2026-04-20 14:32 | 57.17036 | -21.23685 | 35948 ft | 533 kts | 104° |
| 2026-04-20 14:33 | 57.15275 | -21.10417 | 35949 ft | 533 kts | 104° |
| 2026-04-20 14:33 | 57.13500 | -20.97161 | 35950 ft | 533 kts | 104° |
| 2026-04-20 14:34 | 57.11719 | -20.83978 | 35951 ft | 533 kts | 104° |
| 2026-04-20 14:34 | 57.09916 | -20.70755 | 35952 ft | 533 kts | 104° |
| 2026-04-20 14:35 | 57.08099 | -20.57536 | 35953 ft | 533 kts | 104° |
| 2026-04-20 14:35 | 57.06573 | -20.46519 | 35954 ft | 533 kts | 104° |
| 2026-04-20 14:36 | 57.04731 | -20.33331 | 35954 ft | 533 kts | 104° |
| 2026-04-20 14:36 | 57.02876 | -20.20161 | 35954 ft | 533 kts | 105° |
| 2026-04-20 14:37 | 57.01007 | -20.06997 | 35955 ft | 533 kts | 105° |
| 2026-04-20 14:37 | 56.99091 | -19.93930 | 35954 ft | 533 kts | 107° |
| 2026-04-20 14:38 | 56.96803 | -19.80994 | 35955 ft | 533 kts | 109° |
| 2026-04-20 14:38 | 56.94418 | -19.68115 | 35956 ft | 533 kts | 109° |
| 2026-04-20 14:39 | 56.92084 | -19.55310 | 35956 ft | 533 kts | 108° |
| 2026-04-20 14:39 | 56.89756 | -19.42419 | 35957 ft | 533 kts | 108° |
| 2026-04-20 14:40 | 56.87440 | -19.29620 | 35959 ft | 533 kts | 108° |
| 2026-04-20 14:40 | 56.85095 | -19.16759 | 35960 ft | 533 kts | 109° |
| 2026-04-20 14:41 | 56.82737 | -19.03926 | 35961 ft | 533 kts | 109° |
| 2026-04-20 14:41 | 56.80365 | -18.91106 | 35963 ft | 533 kts | 109° |
| 2026-04-20 14:42 | 56.77978 | -18.78298 | 35964 ft | 533 kts | 109° |
| 2026-04-20 14:42 | 56.75592 | -18.65574 | 35965 ft | 533 kts | 109° |
| 2026-04-20 14:43 | 56.73179 | -18.52799 | 35966 ft | 533 kts | 109° |
| 2026-04-20 14:43 | 56.70749 | -18.40017 | 35966 ft | 533 kts | 109° |
| 2026-04-20 14:44 | 56.68324 | -18.27345 | 35967 ft | 533 kts | 109° |
| 2026-04-20 14:44 | 56.65869 | -18.14601 | 35967 ft | 533 kts | 109° |
| 2026-04-20 14:45 | 56.63404 | -18.01889 | 35968 ft | 533 kts | 110° |
| 2026-04-20 14:45 | 56.60925 | -17.89184 | 35970 ft | 533 kts | 110° |
| 2026-04-20 14:46 | 56.58450 | -17.76588 | 35970 ft | 533 kts | 110° |
| 2026-04-20 14:46 | 56.55943 | -17.63906 | 35971 ft | 533 kts | 110° |
| 2026-04-20 14:47 | 56.53425 | -17.51253 | 35973 ft | 533 kts | 110° |
| 2026-04-20 14:48 | 56.49642 | -17.32396 | 35974 ft | 533 kts | 110° |
| 2026-04-20 14:48 | 56.47090 | -17.19778 | 35975 ft | 533 kts | 110° |
| 2026-04-20 14:49 | 56.44526 | -17.07174 | 35976 ft | 533 kts | 110° |
| 2026-04-20 14:49 | 56.41973 | -16.94708 | 35977 ft | 533 kts | 110° |
| 2026-04-20 14:50 | 56.39382 | -16.82132 | 35978 ft | 533 kts | 110° |
| 2026-04-20 14:50 | 56.36783 | -16.69599 | 35979 ft | 533 kts | 111° |
| 2026-04-20 14:51 | 56.34168 | -16.57068 | 35980 ft | 533 kts | 111° |
| 2026-04-20 14:51 | 56.31559 | -16.44638 | 35980 ft | 533 kts | 111° |
| 2026-04-20 14:52 | 56.28918 | -16.32134 | 35982 ft | 533 kts | 111° |
| 2026-04-20 14:52 | 56.26267 | -16.19662 | 35982 ft | 533 kts | 111° |
| 2026-04-20 14:53 | 56.23605 | -16.07213 | 35983 ft | 533 kts | 111° |
| 2026-04-20 14:53 | 56.20944 | -15.94842 | 35984 ft | 533 kts | 111° |
| 2026-04-20 14:54 | 56.18256 | -15.82421 | 35985 ft | 533 kts | 111° |
| 2026-04-20 14:54 | 56.15550 | -15.69995 | 35986 ft | 533 kts | 111° |
| 2026-04-20 14:55 | 56.12839 | -15.57616 | 35987 ft | 533 kts | 111° |
| 2026-04-20 14:55 | 56.10129 | -15.45321 | 35987 ft | 533 kts | 112° |
| 2026-04-20 14:56 | 56.07391 | -15.32966 | 35988 ft | 533 kts | 112° |
| 2026-04-20 14:56 | 56.04643 | -15.20643 | 35989 ft | 533 kts | 112° |
| 2026-04-20 14:57 | 56.01884 | -15.08327 | 35988 ft | 533 kts | 112° |
| 2026-04-20 14:57 | 56.00175 | -14.95532 | 35962 ft | 534 kts | 94° |
| 2026-04-20 14:58 | 55.99972 | -14.82255 | 35966 ft | 534 kts | 90° |
| 2026-04-20 14:58 | 56.00029 | -14.68975 | 35967 ft | 534 kts | 89° |
| 2026-04-20 14:59 | 56.00093 | -14.55712 | 35969 ft | 534 kts | 90° |
| 2026-04-20 14:59 | 56.00111 | -14.42426 | 35971 ft | 534 kts | 90° |
| 2026-04-20 15:00 | 56.00098 | -14.29215 | 35972 ft | 534 kts | 90° |
| 2026-04-20 15:00 | 56.00066 | -14.15937 | 35973 ft | 534 kts | 90° |
| 2026-04-20 15:01 | 55.99421 | -14.02734 | 35951 ft | 534 kts | 103° |
| 2026-04-20 15:01 | 55.98274 | -13.96427 | 35940 ft | 533 kts | 114° |
| 2026-04-20 15:01 | 55.96584 | -13.90630 | 35941 ft | 533 kts | 121° |
| 2026-04-20 15:02 | 55.92627 | -13.79445 | 35939 ft | 533 kts | 124° |
| 2026-04-20 15:02 | 55.88500 | -13.68456 | 35941 ft | 533 kts | 124° |
| 2026-04-20 15:03 | 55.84377 | -13.57472 | 35944 ft | 533 kts | 124° |
| 2026-04-20 15:03 | 55.80303 | -13.46556 | 35946 ft | 533 kts | 124° |
| 2026-04-20 15:04 | 55.76205 | -13.35575 | 35949 ft | 533 kts | 124° |
| 2026-04-20 15:04 | 55.72096 | -13.24611 | 35951 ft | 533 kts | 124° |
| 2026-04-20 15:05 | 55.67973 | -13.13662 | 35953 ft | 533 kts | 124° |
| 2026-04-20 15:05 | 55.63870 | -13.02818 | 35955 ft | 533 kts | 124° |
| 2026-04-20 15:06 | 55.59729 | -12.91924 | 35957 ft | 533 kts | 124° |
| 2026-04-20 15:06 | 55.55582 | -12.81062 | 35959 ft | 533 kts | 124° |
| 2026-04-20 15:07 | 55.51424 | -12.70219 | 35960 ft | 533 kts | 124° |
| 2026-04-20 15:07 | 55.47278 | -12.59456 | 35961 ft | 533 kts | 124° |
| 2026-04-20 15:08 | 55.43099 | -12.48652 | 35962 ft | 533 kts | 124° |
| 2026-04-20 15:08 | 55.38908 | -12.37866 | 35963 ft | 533 kts | 124° |
| 2026-04-20 15:09 | 55.34710 | -12.27108 | 35964 ft | 533 kts | 124° |
| 2026-04-20 15:09 | 55.30526 | -12.16434 | 35965 ft | 533 kts | 125° |
| 2026-04-20 15:10 | 55.26306 | -12.05714 | 35967 ft | 533 kts | 125° |
| 2026-04-20 15:10 | 55.22071 | -11.95002 | 35968 ft | 533 kts | 125° |
| 2026-04-20 15:11 | 55.17858 | -11.84392 | 35970 ft | 533 kts | 125° |
| 2026-04-20 15:11 | 55.13609 | -11.73739 | 35971 ft | 533 kts | 125° |
| 2026-04-20 15:12 | 55.09348 | -11.63100 | 35972 ft | 533 kts | 125° |
| 2026-04-20 15:12 | 55.05112 | -11.52570 | 35972 ft | 533 kts | 125° |
| 2026-04-20 15:13 | 55.00836 | -11.41985 | 35973 ft | 533 kts | 125° |
| 2026-04-20 15:13 | 54.96555 | -11.31431 | 35973 ft | 533 kts | 126° |
| 2026-04-20 15:14 | 54.92260 | -11.20891 | 35975 ft | 533 kts | 126° |
| 2026-04-20 15:14 | 54.87987 | -11.10447 | 35977 ft | 533 kts | 126° |
| 2026-04-20 15:15 | 54.83674 | -10.99952 | 35978 ft | 533 kts | 126° |
| 2026-04-20 15:15 | 54.79353 | -10.89479 | 35978 ft | 533 kts | 126° |
| 2026-04-20 15:16 | 54.75025 | -10.79034 | 35979 ft | 533 kts | 126° |
| 2026-04-20 15:16 | 54.70716 | -10.68680 | 35980 ft | 533 kts | 126° |
| 2026-04-20 15:17 | 54.66370 | -10.58278 | 35981 ft | 533 kts | 126° |
| 2026-04-20 15:17 | 54.62013 | -10.47895 | 35982 ft | 533 kts | 126° |
| 2026-04-20 15:18 | 54.57668 | -10.37585 | 35983 ft | 533 kts | 126° |
| 2026-04-20 15:18 | 54.53295 | -10.27250 | 35983 ft | 533 kts | 126° |
| 2026-04-20 15:19 | 54.48914 | -10.16937 | 35984 ft | 533 kts | 126° |
| 2026-04-20 15:19 | 54.45119 | -10.05983 | 35972 ft | 534 kts | 117° |
| 2026-04-20 15:20 | 54.41869 | -9.94517 | 35973 ft | 534 kts | 115° |
| 2026-04-20 15:20 | 54.38719 | -9.83063 | 35973 ft | 534 kts | 115° |
| 2026-04-20 15:21 | 54.35538 | -9.71573 | 35974 ft | 534 kts | 116° |
| 2026-04-20 15:21 | 54.32325 | -9.60094 | 35974 ft | 534 kts | 116° |
| 2026-04-20 15:22 | 54.29095 | -9.48639 | 35978 ft | 534 kts | 116° |
| 2026-04-20 15:22 | 54.25857 | -9.37218 | 35982 ft | 534 kts | 116° |
| 2026-04-20 15:23 | 54.22604 | -9.25795 | 35986 ft | 534 kts | 116° |
| 2026-04-20 15:23 | 54.19363 | -9.14472 | 35988 ft | 534 kts | 116° |
| 2026-04-20 15:24 | 54.16085 | -9.03071 | 35992 ft | 534 kts | 116° |
| 2026-04-20 15:24 | 54.12802 | -8.91709 | 35997 ft | 534 kts | 116° |
| 2026-04-20 15:25 | 54.09507 | -8.80361 | 36001 ft | 534 kts | 116° |
| 2026-04-20 15:25 | 54.06758 | -8.70933 | 36003 ft | 534 kts | 116° |
| 2026-04-20 15:26 | 54.03445 | -8.59624 | 36006 ft | 534 kts | 117° |
| 2026-04-20 15:26 | 53.99582 | -8.46504 | 36009 ft | 534 kts | 117° |
| 2026-04-20 15:27 | 53.96785 | -8.37052 | 36013 ft | 534 kts | 117° |
| 2026-04-20 15:27 | 53.93456 | -8.25849 | 36016 ft | 534 kts | 117° |
| 2026-04-20 15:28 | 53.90101 | -8.14608 | 36007 ft | 534 kts | 117° |
| 2026-04-20 15:28 | 53.86733 | -8.03381 | 36001 ft | 534 kts | 117° |
| 2026-04-20 15:29 | 53.83356 | -7.92179 | 35988 ft | 534 kts | 117° |
| 2026-04-20 15:29 | 53.79971 | -7.80998 | 36089 ft | 531 kts | 117° |
| 2026-04-20 15:29 | 53.78291 | -7.75469 | 36376 ft | 525 kts | 117° |
| 2026-04-20 15:30 | 53.76630 | -7.70016 | 36671 ft | 519 kts | 117° |
| 2026-04-20 15:30 | 53.74985 | -7.64627 | 36932 ft | 514 kts | 117° |
| 2026-04-20 15:30 | 53.73347 | -7.59271 | 36999 ft | 513 kts | 117° |
| 2026-04-20 15:31 | 53.70076 | -7.48617 | 37000 ft | 515 kts | 117° |
| 2026-04-20 15:31 | 53.66762 | -7.37871 | 37000 ft | 516 kts | 118° |
| 2026-04-20 15:32 | 53.63441 | -7.27148 | 37203 ft | 513 kts | 118° |
| 2026-04-20 15:32 | 53.61792 | -7.21842 | 37495 ft | 507 kts | 118° |
| 2026-04-20 15:32 | 53.60163 | -7.16610 | 37790 ft | 502 kts | 118° |
| 2026-04-20 15:32 | 53.58548 | -7.11437 | 38084 ft | 496 kts | 118° |
| 2026-04-20 15:33 | 53.56953 | -7.06335 | 38378 ft | 490 kts | 118° |
| 2026-04-20 15:33 | 53.55371 | -7.01289 | 38672 ft | 484 kts | 118° |
| 2026-04-20 15:33 | 53.53810 | -6.96318 | 38965 ft | 478 kts | 118° |
| 2026-04-20 15:33 | 53.52263 | -6.91404 | 39258 ft | 472 kts | 118° |
| 2026-04-20 15:34 | 53.50739 | -6.86572 | 39542 ft | 465 kts | 118° |
| 2026-04-20 15:34 | 53.49227 | -6.81786 | 39726 ft | 462 kts | 118° |
| 2026-04-20 15:34 | 53.47741 | -6.77092 | 39791 ft | 461 kts | 118° |
| 2026-04-20 15:35 | 53.44729 | -6.67608 | 39846 ft | 460 kts | 118° |
| 2026-04-20 15:35 | 53.41713 | -6.58148 | 39870 ft | 460 kts | 118° |
| 2026-04-20 15:36 | 53.38686 | -6.48689 | 39879 ft | 460 kts | 118° |
| 2026-04-20 15:36 | 53.35649 | -6.39236 | 39879 ft | 461 kts | 118° |
| 2026-04-20 15:37 | 53.32600 | -6.29784 | 39879 ft | 461 kts | 118° |
| 2026-04-20 15:37 | 53.29561 | -6.20397 | 39879 ft | 462 kts | 118° |
| 2026-04-20 15:38 | 53.26491 | -6.10953 | 39879 ft | 462 kts | 119° |
| 2026-04-20 15:38 | 53.23413 | -6.01518 | 39882 ft | 463 kts | 119° |
| 2026-04-20 15:39 | 53.20324 | -5.92087 | 39891 ft | 463 kts | 119° |
| 2026-04-20 15:39 | 53.17225 | -5.82662 | 39900 ft | 464 kts | 119° |
| 2026-04-20 15:40 | 53.14117 | -5.73244 | 39908 ft | 464 kts | 119° |
| 2026-04-20 15:40 | 53.11000 | -5.63836 | 39916 ft | 464 kts | 119° |
| 2026-04-20 15:41 | 53.07873 | -5.54436 | 39923 ft | 464 kts | 119° |
| 2026-04-20 15:41 | 53.04680 | -5.45094 | 39930 ft | 464 kts | 122° |
| 2026-04-20 15:42 | 53.01183 | -5.36147 | 39671 ft | 455 kts | 124° |
| 2026-04-20 15:42 | 52.97671 | -5.27415 | 39399 ft | 463 kts | 124° |
| 2026-04-20 15:42 | 52.95879 | -5.22914 | 39074 ft | 472 kts | 123° |
| 2026-04-20 15:43 | 52.94075 | -5.18347 | 39002 ft | 474 kts | 123° |
| 2026-04-20 15:43 | 52.90471 | -5.09175 | 39000 ft | 475 kts | 123° |
| 2026-04-20 15:44 | 52.86850 | -4.99960 | 38764 ft | 483 kts | 123° |
| 2026-04-20 15:44 | 52.84997 | -4.95252 | 38382 ft | 493 kts | 123° |
| 2026-04-20 15:44 | 52.83111 | -4.90467 | 38045 ft | 501 kts | 123° |
| 2026-04-20 15:44 | 52.81193 | -4.85604 | 37776 ft | 508 kts | 123° |
| 2026-04-20 15:45 | 52.79248 | -4.80690 | 37563 ft | 513 kts | 123° |
| 2026-04-20 15:45 | 52.77281 | -4.75744 | 37367 ft | 518 kts | 123° |
| 2026-04-20 15:45 | 52.75287 | -4.70753 | 37204 ft | 522 kts | 123° |
| 2026-04-20 15:45 | 52.73281 | -4.65754 | 37098 ft | 524 kts | 124° |
| 2026-04-20 15:46 | 52.71258 | -4.60734 | 37004 ft | 526 kts | 124° |
| 2026-04-20 15:46 | 52.69218 | -4.55696 | 36881 ft | 529 kts | 124° |
| 2026-04-20 15:46 | 52.67167 | -4.50656 | 36721 ft | 531 kts | 124° |
| 2026-04-20 15:46 | 52.65096 | -4.45588 | 36515 ft | 533 kts | 124° |
| 2026-04-20 15:47 | 52.63055 | -4.40542 | 36198 ft | 529 kts | 123° |
| 2026-04-20 15:47 | 52.61030 | -4.35477 | 35902 ft | 532 kts | 123° |
| 2026-04-20 15:47 | 52.58988 | -4.30368 | 35605 ft | 538 kts | 123° |
| 2026-04-20 15:47 | 52.56916 | -4.25209 | 35306 ft | 543 kts | 124° |
| 2026-04-20 15:48 | 52.54846 | -4.20083 | 35057 ft | 546 kts | 124° |
| 2026-04-20 15:48 | 52.50632 | -4.09726 | 34999 ft | 545 kts | 124° |
| 2026-04-20 15:49 | 52.46412 | -3.99421 | 35000 ft | 543 kts | 124° |
| 2026-04-20 15:49 | 52.42189 | -3.89153 | 35000 ft | 542 kts | 124° |
| 2026-04-20 15:50 | 52.37971 | -3.78938 | 35000 ft | 541 kts | 124° |
| 2026-04-20 15:50 | 52.33753 | -3.68759 | 35000 ft | 540 kts | 124° |
| 2026-04-20 15:51 | 52.29531 | -3.58609 | 35000 ft | 539 kts | 124° |
| 2026-04-20 15:51 | 52.25305 | -3.48491 | 35000 ft | 539 kts | 124° |
| 2026-04-20 15:52 | 52.21101 | -3.38467 | 35000 ft | 538 kts | 124° |
| 2026-04-20 15:52 | 52.16870 | -3.28418 | 35000 ft | 538 kts | 124° |
| 2026-04-20 15:53 | 52.10508 | -3.13379 | 35000 ft | 537 kts | 125° |
| 2026-04-20 15:53 | 52.06253 | -3.03370 | 35000 ft | 537 kts | 125° |
| 2026-04-20 15:54 | 52.01997 | -2.93398 | 34998 ft | 537 kts | 125° |
| 2026-04-20 15:54 | 51.97733 | -2.83447 | 35004 ft | 537 kts | 125° |
| 2026-04-20 15:55 | 51.93467 | -2.73527 | 35000 ft | 536 kts | 125° |
| 2026-04-20 15:55 | 51.89191 | -2.63623 | 35000 ft | 536 kts | 125° |
| 2026-04-20 15:56 | 51.84897 | -2.53717 | 35000 ft | 536 kts | 125° |
| 2026-04-20 15:56 | 51.80634 | -2.43919 | 35000 ft | 536 kts | 125° |
| 2026-04-20 15:57 | 51.76307 | -2.34010 | 35000 ft | 536 kts | 125° |
| 2026-04-20 15:57 | 51.72000 | -2.24188 | 35000 ft | 536 kts | 126° |
| 2026-04-20 15:58 | 51.67713 | -2.14448 | 35000 ft | 536 kts | 126° |
| 2026-04-20 15:58 | 51.63389 | -2.04658 | 35000 ft | 536 kts | 126° |
| 2026-04-20 15:59 | 51.59056 | -1.94887 | 35000 ft | 536 kts | 126° |
| 2026-04-20 15:59 | 51.54715 | -1.85133 | 35000 ft | 536 kts | 126° |
| 2026-04-20 16:00 | 51.50365 | -1.75398 | 35000 ft | 536 kts | 126° |
| 2026-04-20 16:00 | 51.46322 | -1.65367 | 35003 ft | 536 kts | 117° |
| 2026-04-20 16:01 | 51.43029 | -1.54656 | 34999 ft | 536 kts | 115° |
| 2026-04-20 16:01 | 51.39857 | -1.43821 | 35000 ft | 536 kts | 115° |
| 2026-04-20 16:02 | 51.36692 | -1.33004 | 35000 ft | 536 kts | 115° |
| 2026-04-20 16:02 | 51.33344 | -1.22346 | 35003 ft | 536 kts | 121° |
| 2026-04-20 16:03 | 51.29357 | -1.12349 | 35000 ft | 536 kts | 126° |
| 2026-04-20 16:03 | 51.24857 | -1.02856 | 35000 ft | 536 kts | 128° |
| 2026-04-20 16:04 | 51.20260 | -0.93495 | 35000 ft | 536 kts | 128° |
| 2026-04-20 16:04 | 51.15703 | -0.84074 | 35000 ft | 536 kts | 128° |
| 2026-04-20 16:05 | 51.11187 | -0.74627 | 35000 ft | 536 kts | 127° |
| 2026-04-20 16:05 | 51.06675 | -0.65178 | 34999 ft | 536 kts | 127° |
| 2026-04-20 16:06 | 51.02580 | -0.55278 | 35000 ft | 536 kts | 122° |
| 2026-04-20 16:06 | 50.98646 | -0.45206 | 35000 ft | 536 kts | 122° |
| 2026-04-20 16:07 | 50.94732 | -0.35126 | 35000 ft | 537 kts | 122° |
| 2026-04-20 16:07 | 50.90802 | -0.25064 | 35000 ft | 537 kts | 122° |
| 2026-04-20 16:08 | 50.86879 | -0.15087 | 35000 ft | 537 kts | 122° |
| 2026-04-20 16:08 | 50.82923 | -0.05071 | 35000 ft | 537 kts | 122° |
| 2026-04-20 16:09 | 50.78956 | 0.04935 | 35000 ft | 537 kts | 122° |
| 2026-04-20 16:09 | 50.74337 | 0.14143 | 35001 ft | 536 kts | 137° |
| 2026-04-20 16:10 | 50.68695 | 0.21832 | 35000 ft | 535 kts | 141° |
| 2026-04-20 16:10 | 50.62890 | 0.29192 | 35000 ft | 535 kts | 142° |
| 2026-04-20 16:11 | 50.57071 | 0.36509 | 35000 ft | 535 kts | 141° |
| 2026-04-20 16:11 | 50.51267 | 0.43843 | 35000 ft | 535 kts | 141° |
| 2026-04-20 16:12 | 50.45462 | 0.51180 | 35000 ft | 536 kts | 141° |
| 2026-04-20 16:12 | 50.39653 | 0.58506 | 35000 ft | 536 kts | 141° |
| 2026-04-20 16:13 | 50.33845 | 0.65811 | 35000 ft | 535 kts | 141° |
| 2026-04-20 16:13 | 50.29014 | 0.71874 | 35000 ft | 536 kts | 141° |
| 2026-04-20 16:14 | 50.23193 | 0.79146 | 35000 ft | 536 kts | 141° |
| 2026-04-20 16:14 | 50.16455 | 0.87536 | 35000 ft | 529 kts | 142° |
| 2026-04-20 16:15 | 50.11639 | 0.93511 | 35000 ft | 527 kts | 142° |
| 2026-04-20 16:15 | 50.05884 | 1.00475 | 34992 ft | 527 kts | 147° |
| 2026-04-20 16:16 | 49.99430 | 1.05675 | 34384 ft | 517 kts | 155° |
| 2026-04-20 16:16 | 49.96194 | 1.08073 | 33634 ft | 514 kts | 155° |
| 2026-04-20 16:16 | 49.92980 | 1.10459 | 32985 ft | 510 kts | 154° |
| 2026-04-20 16:17 | 49.89788 | 1.12838 | 32386 ft | 505 kts | 154° |
| 2026-04-20 16:17 | 49.86641 | 1.15186 | 31798 ft | 499 kts | 154° |
| 2026-04-20 16:17 | 49.83533 | 1.17507 | 31210 ft | 493 kts | 154° |
| 2026-04-20 16:17 | 49.80457 | 1.19802 | 30627 ft | 488 kts | 154° |
| 2026-04-20 16:18 | 49.77417 | 1.22070 | 30030 ft | 480 kts | 154° |
| 2026-04-20 16:18 | 49.74442 | 1.24286 | 29035 ft | 470 kts | 154° |
| 2026-04-20 16:18 | 49.71513 | 1.26465 | 27943 ft | 464 kts | 154° |
| 2026-04-20 16:18 | 49.68630 | 1.28608 | 26910 ft | 456 kts | 154° |
| 2026-04-20 16:19 | 49.65802 | 1.30707 | 25845 ft | 446 kts | 154° |
| 2026-04-20 16:19 | 49.63067 | 1.32735 | 24756 ft | 438 kts | 154° |
| 2026-04-20 16:19 | 49.60346 | 1.34749 | 23663 ft | 429 kts | 154° |
| 2026-04-20 16:19 | 49.57652 | 1.36742 | 22843 ft | 428 kts | 155° |
| 2026-04-20 16:20 | 49.54988 | 1.38709 | 22389 ft | 420 kts | 155° |
| 2026-04-20 16:20 | 49.52373 | 1.40638 | 21875 ft | 414 kts | 155° |
| 2026-04-20 16:20 | 49.49786 | 1.42544 | 21324 ft | 410 kts | 155° |
| 2026-04-20 16:20 | 49.47227 | 1.44428 | 20769 ft | 405 kts | 155° |
| 2026-04-20 16:21 | 49.44693 | 1.46290 | 20214 ft | 401 kts | 155° |
| 2026-04-20 16:21 | 49.42189 | 1.48129 | 19661 ft | 397 kts | 155° |
| 2026-04-20 16:21 | 49.39710 | 1.49947 | 19211 ft | 390 kts | 155° |
| 2026-04-20 16:21 | 49.37306 | 1.51709 | 18916 ft | 373 kts | 155° |
| 2026-04-20 16:22 | 49.35029 | 1.53375 | 18449 ft | 354 kts | 155° |
| 2026-04-20 16:22 | 49.32838 | 1.54990 | 17712 ft | 345 kts | 154° |
| 2026-04-20 16:22 | 49.30921 | 1.57118 | 16850 ft | 340 kts | 131° |
| 2026-04-20 16:22 | 49.29783 | 1.60241 | 16064 ft | 339 kts | 105° |
| 2026-04-20 16:23 | 49.29501 | 1.63808 | 15627 ft | 336 kts | 92° |
| 2026-04-20 16:23 | 49.29415 | 1.67359 | 15219 ft | 332 kts | 92° |
| 2026-04-20 16:23 | 49.29316 | 1.70873 | 14787 ft | 329 kts | 93° |
| 2026-04-20 16:23 | 49.29195 | 1.74361 | 14344 ft | 326 kts | 94° |
| 2026-04-20 16:24 | 49.29290 | 1.77808 | 13876 ft | 324 kts | 79° |
| 2026-04-20 16:24 | 49.30119 | 1.80980 | 13419 ft | 321 kts | 56° |
| 2026-04-20 16:24 | 49.31698 | 1.83355 | 12949 ft | 319 kts | 31° |
| 2026-04-20 16:24 | 49.33724 | 1.84503 | 12483 ft | 316 kts | 7° |
| 2026-04-20 16:25 | 49.35889 | 1.84267 | 12018 ft | 312 kts | 342° |
| 2026-04-20 16:25 | 49.37772 | 1.82699 | 11554 ft | 309 kts | 318° |
| 2026-04-20 16:25 | 49.39057 | 1.80112 | 11094 ft | 305 kts | 294° |
| 2026-04-20 16:25 | 49.39565 | 1.76992 | 10649 ft | 301 kts | 273° |
| 2026-04-20 16:26 | 49.39593 | 1.73788 | 10213 ft | 299 kts | 268° |
| 2026-04-20 16:26 | 49.39538 | 1.70606 | 9779 ft | 297 kts | 268° |
| 2026-04-20 16:26 | 49.39483 | 1.67455 | 9345 ft | 295 kts | 268° |
| 2026-04-20 16:26 | 49.39380 | 1.64325 | 8905 ft | 292 kts | 262° |
| 2026-04-20 16:27 | 49.38801 | 1.61374 | 8533 ft | 288 kts | 242° |
| 2026-04-20 16:27 | 49.37549 | 1.59003 | 8398 ft | 284 kts | 219° |
| 2026-04-20 16:27 | 49.35863 | 1.57614 | 8261 ft | 271 kts | 195° |
| 2026-04-20 16:27 | 49.34027 | 1.57379 | 8133 ft | 264 kts | 174° |
| 2026-04-20 16:28 | 49.32275 | 1.58076 | 8035 ft | 264 kts | 156° |
| 2026-04-20 16:28 | 49.30608 | 1.59463 | 8033 ft | 279 kts | 145° |
| 2026-04-20 16:28 | 49.29183 | 1.61473 | 7950 ft | 280 kts | 133° |
| 2026-04-20 16:28 | 49.27898 | 1.63772 | 7833 ft | 287 kts | 130° |
| 2026-04-20 16:29 | 49.26646 | 1.66160 | 7709 ft | 288 kts | 129° |
| 2026-04-20 16:29 | 49.25410 | 1.68571 | 7581 ft | 287 kts | 128° |
| 2026-04-20 16:29 | 49.24183 | 1.70985 | 7349 ft | 286 kts | 128° |
| 2026-04-20 16:29 | 49.22964 | 1.73391 | 7100 ft | 285 kts | 128° |
| 2026-04-20 16:30 | 49.21752 | 1.75787 | 6850 ft | 284 kts | 128° |
| 2026-04-20 16:30 | 49.20547 | 1.78173 | 6601 ft | 283 kts | 128° |
| 2026-04-20 16:30 | 49.19345 | 1.80550 | 6349 ft | 282 kts | 128° |
| 2026-04-20 16:30 | 49.18151 | 1.82913 | 6101 ft | 280 kts | 128° |
| 2026-04-20 16:31 | 49.16958 | 1.85270 | 5851 ft | 279 kts | 128° |
| 2026-04-20 16:31 | 49.15772 | 1.87611 | 5598 ft | 278 kts | 128° |
| 2026-04-20 16:31 | 49.14590 | 1.89944 | 5349 ft | 277 kts | 128° |
| 2026-04-20 16:31 | 49.13413 | 1.92266 | 5165 ft | 276 kts | 128° |
| 2026-04-20 16:32 | 49.12239 | 1.94578 | 5038 ft | 275 kts | 128° |
| 2026-04-20 16:32 | 49.11067 | 1.96885 | 4912 ft | 275 kts | 128° |
| 2026-04-20 16:32 | 49.09897 | 1.99188 | 4789 ft | 274 kts | 128° |
| 2026-04-20 16:32 | 49.08728 | 2.01484 | 4664 ft | 273 kts | 128° |
| 2026-04-20 16:33 | 49.07546 | 2.03706 | 4581 ft | 273 kts | 132° |
| 2026-04-20 16:33 | 49.06291 | 2.05862 | 4468 ft | 267 kts | 132° |
| 2026-04-20 16:33 | 49.05080 | 2.07923 | 4333 ft | 254 kts | 133° |
| 2026-04-20 16:33 | 49.03923 | 2.09876 | 4200 ft | 243 kts | 133° |
| 2026-04-20 16:34 | 49.02816 | 2.11737 | 4067 ft | 232 kts | 133° |
| 2026-04-20 16:34 | 49.01752 | 2.13516 | 3940 ft | 222 kts | 133° |
| 2026-04-20 16:34 | 49.00781 | 2.15256 | 3862 ft | 208 kts | 123° |
| 2026-04-20 16:34 | 49.00342 | 2.17236 | 3859 ft | 190 kts | 98° |
| 2026-04-20 16:35 | 49.00326 | 2.19144 | 3845 ft | 172 kts | 86° |
| 2026-04-20 16:35 | 49.00423 | 2.20907 | 3851 ft | 165 kts | 85° |
| 2026-04-20 16:35 | 49.00526 | 2.22744 | 3871 ft | 181 kts | 85° |
| 2026-04-20 16:35 | 49.00630 | 2.24677 | 3807 ft | 184 kts | 86° |
| 2026-04-20 16:36 | 49.00729 | 2.26625 | 3589 ft | 184 kts | 86° |
| 2026-04-20 16:36 | 49.00832 | 2.28564 | 3322 ft | 184 kts | 85° |
| 2026-04-20 16:36 | 49.00938 | 2.30506 | 3056 ft | 183 kts | 86° |
| 2026-04-20 16:36 | 49.01042 | 2.32428 | 2803 ft | 179 kts | 86° |
| 2026-04-20 16:37 | 49.01140 | 2.34235 | 2573 ft | 167 kts | 86° |
| 2026-04-20 16:37 | 49.01232 | 2.35947 | 2358 ft | 158 kts | 86° |
| 2026-04-20 16:37 | 49.01320 | 2.37573 | 2149 ft | 149 kts | 86° |
| 2026-04-20 16:37 | 49.01402 | 2.39101 | 1953 ft | 141 kts | 86° |
| 2026-04-20 16:38 | 49.01482 | 2.40580 | 1778 ft | 140 kts | 86° |
| 2026-04-20 16:38 | 49.01561 | 2.42057 | 1593 ft | 140 kts | 86° |
| 2026-04-20 16:38 | 49.01640 | 2.43528 | 1407 ft | 139 kts | 86° |
| 2026-04-20 16:38 | 49.01719 | 2.44992 | 1225 ft | 139 kts | 86° |
| 2026-04-20 16:39 | 49.01803 | 2.46455 | 1035 ft | 139 kts | 85° |
| 2026-04-20 16:39 | 49.01885 | 2.47896 | 835 ft | 138 kts | 86° |
| 2026-04-20 16:39 | 49.01952 | 2.49349 | 656 ft | 138 kts | 86° |
| 2026-04-20 16:39 | 49.02034 | 2.50798 | 489 ft | 137 kts | 86° |
| 2026-04-20 16:40 | 49.02117 | 2.52244 | 362 ft | 134 kts | 85° |
| 2026-04-20 16:40 | 49.02179 | 2.53451 | 359 ft | 81 kts | 85° |
| 2026-04-20 16:40 | 49.02198 | 2.53850 | 360 ft | 0 kts | 88° |
| 2026-04-20 16:40 | 49.02189 | 2.54011 | 360 ft | 21 kts | 101° |
| 2026-04-20 16:41 | 49.02155 | 2.54216 | 361 ft | 10 kts | 104° |
| 2026-04-20 16:41 | 49.02153 | 2.54227 | 361 ft | 0 kts | 104° |
| 2026-04-20 16:41 | 49.02147 | 2.54262 | 361 ft | 10 kts | 104° |
| 2026-04-20 16:41 | 49.02117 | 2.54425 | 361 ft | 19 kts | 105° |
| 2026-04-20 16:42 | 49.02082 | 2.54612 | 361 ft | 13 kts | 106° |
| 2026-04-20 16:42 | 49.02068 | 2.54690 | 361 ft | 10 kts | 106° |
| 2026-04-20 16:42 | 49.02063 | 2.54718 | 361 ft | 1 kts | 106° |
| 2026-04-20 16:42 | 49.02059 | 2.54739 | 361 ft | 4 kts | 106° |
| 2026-04-20 16:43 | 49.02048 | 2.54796 | 361 ft | 7 kts | 106° |
| 2026-04-20 16:43 | 49.02043 | 2.54819 | 361 ft | 0 kts | 106° |
| 2026-04-20 16:44 | 49.02043 | 2.54822 | 361 ft | 0 kts | 109° |
| 2026-04-20 16:44 | 49.02022 | 2.54844 | 361 ft | 12 kts | 158° |
| 2026-04-20 16:45 | 49.01928 | 2.54844 | 361 ft | 15 kts | 179° |
| 2026-04-20 16:45 | 49.01815 | 2.54857 | 361 ft | 18 kts | 175° |
| 2026-04-20 16:45 | 49.01683 | 2.54874 | 361 ft | 20 kts | 175° |
| 2026-04-20 16:45 | 49.01533 | 2.54893 | 361 ft | 22 kts | 175° |
| 2026-04-20 16:46 | 49.01382 | 2.54923 | 361 ft | 21 kts | 166° |
| 2026-04-20 16:46 | 49.01275 | 2.54969 | 361 ft | 16 kts | 164° |
| 2026-04-20 16:46 | 49.01160 | 2.55020 | 361 ft | 19 kts | 164° |
| 2026-04-20 16:46 | 49.01027 | 2.55078 | 361 ft | 21 kts | 164° |
| 2026-04-20 16:47 | 49.00878 | 2.55141 | 361 ft | 23 kts | 164° |
| 2026-04-20 16:47 | 49.00757 | 2.55194 | 361 ft | 16 kts | 163° |
| 2026-04-20 16:47 | 49.00639 | 2.55246 | 361 ft | 19 kts | 164° |
| 2026-04-20 16:47 | 49.00503 | 2.55305 | 361 ft | 22 kts | 164° |
| 2026-04-20 16:48 | 49.00380 | 2.55358 | 361 ft | 13 kts | 164° |
| 2026-04-20 16:48 | 49.00280 | 2.55402 | 361 ft | 16 kts | 164° |
| 2026-04-20 16:48 | 49.00162 | 2.55453 | 361 ft | 19 kts | 164° |
| 2026-04-20 16:48 | 49.00042 | 2.55505 | 361 ft | 11 kts | 164° |
| 2026-04-20 16:49 | 48.99989 | 2.55590 | 361 ft | 13 kts | 112° |
| 2026-04-20 16:49 | 48.99939 | 2.55719 | 361 ft | 16 kts | 123° |
| 2026-04-20 16:49 | 48.99899 | 2.55887 | 360 ft | 18 kts | 105° |
| 2026-04-20 16:49 | 48.99893 | 2.56093 | 360 ft | 21 kts | 85° |
| 2026-04-20 16:50 | 48.99905 | 2.56327 | 360 ft | 23 kts | 85° |
| 2026-04-20 16:50 | 48.99914 | 2.56500 | 360 ft | 16 kts | 85° |
| 2026-04-20 16:50 | 48.99923 | 2.56682 | 360 ft | 19 kts | 85° |
| 2026-04-20 16:50 | 48.99934 | 2.56893 | 360 ft | 21 kts | 85° |
| 2026-04-20 16:51 | 48.99945 | 2.57089 | 360 ft | 16 kts | 85° |
| 2026-04-20 16:51 | 48.99955 | 2.57271 | 360 ft | 19 kts | 85° |
| 2026-04-20 16:51 | 48.99966 | 2.57483 | 360 ft | 21 kts | 85° |
| 2026-04-20 16:51 | 48.99975 | 2.57663 | 360 ft | 5 kts | 85° |
| 2026-04-20 16:52 | 48.99994 | 2.57718 | 360 ft | 7 kts | 41° |
| 2026-04-20 16:52 | 49.00041 | 2.57711 | 360 ft | 8 kts | 322° |
| 2026-04-20 16:52 | 49.00071 | 2.57648 | 361 ft | 7 kts | 320° |
| 2026-04-20 16:52 | 49.00107 | 2.57631 | 361 ft | 2 kts | 351° |
| 2026-04-20 16:53 | 49.00123 | 2.57624 | 361 ft | 4 kts | 349° |
| 2026-04-20 16:53 | 49.00142 | 2.57623 | 361 ft | 3 kts | 360° |
| 2026-04-20 16:53 | 49.00144 | 2.57623 | 361 ft | 0 kts | 358° |